Wetterdaten: Freitag, 13.09.2019
Datum Zeit Temp. Aussen Temp. o. S. +5cm Feuchte Auss Luftdruck Regen Sonnenschein Regendauer Solar Windben Empfang
13.09.2019 00:00 18,3 C 17,8 C 17,2 C 82 % 1028,2 hPa 0,0 l/m 0 min 0 min 0 W/m 3,2 km/h (1 Bft) 100,00 %
13.09.2019 00:02 18,3 C 17,8 C 17,2 C 83 % 1028,1 hPa 0,0 l/m 0 min 0 min 0 W/m 12,9 km/h (3 Bft) 97,56 %
13.09.2019 00:04 18,3 C 17,8 C 17,2 C 83 % 1028,1 hPa 0,0 l/m 0 min 0 min 0 W/m 6,4 km/h (2 Bft) 100,00 %
13.09.2019 00:08 18,4 C 17,8 C 17,2 C 84 % 1028,0 hPa 0,0 l/m 0 min 0 min 0 W/m 12,9 km/h (3 Bft) 97,87 %
13.09.2019 00:10 18,4 C 17,8 C 17,2 C 84 % 1028,1 hPa 0,0 l/m 0 min 0 min 0 W/m 6,4 km/h (2 Bft) 97,83 %
13.09.2019 00:12 18,4 C 17,8 C 17,2 C 84 % 1028,0 hPa 0,0 l/m 0 min 0 min 0 W/m 6,4 km/h (2 Bft) 97,87 %
13.09.2019 00:14 18,4 C 17,8 C 17,2 C 84 % 1028,0 hPa 0,0 l/m 0 min 0 min 0 W/m 9,7 km/h (2 Bft) 93,62 %
13.09.2019 00:16 18,4 C 17,8 C 17,2 C 84 % 1028,1 hPa 0,0 l/m 0 min 0 min 0 W/m 9,7 km/h (2 Bft) 97,87 %
13.09.2019 00:18 18,4 C 17,8 C 17,2 C 84 % 1028,1 hPa 0,0 l/m 0 min 0 min 0 W/m 6,4 km/h (2 Bft) 97,87 %
13.09.2019 00:20 18,5 C 17,8 C 17,2 C 84 % 1028,1 hPa 0,0 l/m 0 min 0 min 0 W/m 9,7 km/h (2 Bft) 97,87 %
13.09.2019 00:22 18,5 C 17,8 C 17,2 C 84 % 1028,1 hPa 0,0 l/m 0 min 0 min 0 W/m 3,2 km/h (1 Bft) 95,65 %
13.09.2019 00:24 18,5 C 17,8 C 17,2 C 84 % 1028,0 hPa 0,0 l/m 0 min 0 min 0 W/m 3,2 km/h (1 Bft) 97,87 %
13.09.2019 00:26 18,5 C 17,8 C 17,2 C 84 % 1028,0 hPa 0,0 l/m 0 min 0 min 0 W/m 3,2 km/h (1 Bft) 97,87 %
13.09.2019 00:28 18,5 C 17,8 C 17,2 C 85 % 1028,0 hPa 0,0 l/m 0 min 0 min 0 W/m 6,4 km/h (2 Bft) 97,87 %
13.09.2019 00:30 18,5 C 17,8 C 17,2 C 85 % 1028,1 hPa 0,0 l/m 0 min 0 min 0 W/m 9,7 km/h (2 Bft) 93,62 %
13.09.2019 00:32 18,5 C 17,2 C 17,2 C 85 % 1028,1 hPa 0,0 l/m 0 min 0 min 0 W/m 3,2 km/h (1 Bft) 97,83 %
13.09.2019 00:34 18,5 C 17,2 C 17,2 C 85 % 1028,2 hPa 0,0 l/m 0 min 0 min 0 W/m 9,7 km/h (2 Bft) 97,87 %
13.09.2019 00:36 18,5 C 17,2 C 17,2 C 85 % 1028,1 hPa 0,0 l/m 0 min 0 min 0 W/m 3,2 km/h (1 Bft) 97,87 %
13.09.2019 00:38 18,5 C 17,8 C 17,2 C 85 % 1028,1 hPa 0,0 l/m 0 min 0 min 0 W/m 3,2 km/h (1 Bft) 97,87 %
13.09.2019 00:40 18,6 C 17,8 C 17,2 C 85 % 1028,1 hPa 0,0 l/m 0 min 0 min 0 W/m 3,2 km/h (1 Bft) 95,74 %
13.09.2019 00:42 18,6 C 17,8 C 17,2 C 85 % 1028,0 hPa 0,0 l/m 0 min 0 min 0 W/m 3,2 km/h (1 Bft) 95,74 %
13.09.2019 00:44 18,6 C 17,8 C 17,2 C 85 % 1028,0 hPa 0,0 l/m 0 min 0 min 0 W/m 6,4 km/h (2 Bft) 97,87 %
13.09.2019 00:46 18,6 C 17,8 C 17,2 C 85 % 1028,0 hPa 0,0 l/m 0 min 0 min 0 W/m 6,4 km/h (2 Bft) 95,65 %
13.09.2019 00:48 18,6 C 17,8 C 17,2 C 85 % 1028,0 hPa 0,0 l/m 0 min 0 min 0 W/m 0,0 km/h (0 Bft) 95,74 %
13.09.2019 00:50 18,6 C 17,8 C 17,2 C 85 % 1028,1 hPa 0,0 l/m 0 min 0 min 0 W/m 3,2 km/h (1 Bft) 95,74 %
13.09.2019 00:52 18,6 C 17,8 C 17,2 C 85 % 1028,1 hPa 0,0 l/m 0 min 0 min 0 W/m 3,2 km/h (1 Bft) 97,87 %
13.09.2019 00:54 18,6 C 17,8 C 17,8 C 86 % 1028,0 hPa 0,0 l/m 0 min 0 min 0 W/m 0,0 km/h (0 Bft) 97,87 %
13.09.2019 00:56 18,6 C 17,8 C 17,8 C 86 % 1028,0 hPa 0,0 l/m 0 min 0 min 0 W/m 0,0 km/h (0 Bft) 97,83 %
13.09.2019 00:58 18,6 C 17,8 C 17,8 C 86 % 1028,0 hPa 0,0 l/m 0 min 0 min 0 W/m 3,2 km/h (1 Bft) 97,87 %
13.09.2019 01:00 18,6 C 17,8 C 17,8 C 86 % 1028,0 hPa 0,0 l/m 0 min 0 min 0 W/m 6,4 km/h (2 Bft) 95,74 %
13.09.2019 01:02 18,6 C 17,8 C 17,8 C 86 % 1027,9 hPa 0,0 l/m 0 min 0 min 0 W/m 3,2 km/h (1 Bft) 95,74 %
13.09.2019 01:04 18,6 C 17,8 C 17,8 C 86 % 1028,0 hPa 0,0 l/m 0 min 0 min 0 W/m 3,2 km/h (1 Bft) 97,87 %
13.09.2019 01:06 18,6 C 17,8 C 17,8 C 86 % 1028,0 hPa 0,0 l/m 0 min 0 min 0 W/m 0,0 km/h (0 Bft) 97,87 %
13.09.2019 01:08 18,6 C 17,8 C 17,8 C 86 % 1028,0 hPa 0,0 l/m 0 min 0 min 0 W/m 3,2 km/h (1 Bft) 97,83 %
13.09.2019 01:10 18,7 C 17,8 C 17,8 C 86 % 1028,1 hPa 0,0 l/m 0 min 0 min 0 W/m 3,2 km/h (1 Bft) 97,87 %
13.09.2019 01:12 18,7 C 17,8 C 17,8 C 86 % 1028,0 hPa 0,0 l/m 0 min 0 min 0 W/m 3,2 km/h (1 Bft) 97,87 %
13.09.2019 01:14 18,7 C 17,8 C 17,8 C 86 % 1028,0 hPa 0,0 l/m 0 min 0 min 0 W/m 3,2 km/h (1 Bft) 97,87 %
13.09.2019 01:16 18,7 C 17,8 C 17,8 C 86 % 1028,0 hPa 0,0 l/m 0 min 0 min 0 W/m 3,2 km/h (1 Bft) 97,87 %
13.09.2019 01:18 18,7 C 17,8 C 17,8 C 86 % 1028,0 hPa 0,0 l/m 0 min 0 min 0 W/m 3,2 km/h (1 Bft) 95,74 %
13.09.2019 01:20 18,7 C 17,8 C 17,8 C 86 % 1028,1 hPa 0,0 l/m 0 min 0 min 0 W/m 0,0 km/h (0 Bft) 97,83 %
13.09.2019 01:22 18,7 C 17,8 C 17,8 C 86 % 1028,1 hPa 0,0 l/m 0 min 0 min 0 W/m 3,2 km/h (1 Bft) 97,87 %
13.09.2019 01:24 18,7 C 17,8 C 17,8 C 86 % 1028,1 hPa 0,0 l/m 0 min 0 min 0 W/m 0,0 km/h (0 Bft) 97,87 %
13.09.2019 01:26 18,7 C 17,8 C 17,8 C 86 % 1028,1 hPa 0,0 l/m 0 min 0 min 0 W/m 6,4 km/h (2 Bft) 97,87 %
13.09.2019 01:28 18,7 C 17,8 C 17,8 C 86 % 1028,1 hPa 0,0 l/m 0 min 0 min 0 W/m 12,9 km/h (3 Bft) 97,87 %
13.09.2019 01:30 18,7 C 17,8 C 17,8 C 86 % 1028,1 hPa 0,0 l/m 0 min 0 min 0 W/m 6,4 km/h (2 Bft) 97,87 %
13.09.2019 01:32 18,7 C 18,3 C 17,8 C 87 % 1028,2 hPa 0,0 l/m 0 min 0 min 0 W/m 6,4 km/h (2 Bft) 95,65 %
13.09.2019 01:34 18,8 C 18,3 C 17,8 C 87 % 1028,1 hPa 0,0 l/m 0 min 0 min 0 W/m 6,4 km/h (2 Bft) 97,87 %
13.09.2019 01:36 18,8 C 18,3 C 17,8 C 87 % 1028,1 hPa 0,0 l/m 0 min 0 min 0 W/m 0,0 km/h (0 Bft) 95,74 %
13.09.2019 01:38 18,8 C 18,3 C 17,8 C 87 % 1028,1 hPa 0,0 l/m 0 min 0 min 0 W/m 3,2 km/h (1 Bft) 97,87 %
13.09.2019 01:40 18,8 C 18,3 C 17,8 C 87 % 1028,1 hPa 0,0 l/m 0 min 0 min 0 W/m 9,7 km/h (2 Bft) 97,87 %
13.09.2019 01:42 18,8 C 18,3 C 17,8 C 87 % 1028,2 hPa 0,0 l/m 0 min 0 min 0 W/m 6,4 km/h (2 Bft) 97,87 %
13.09.2019 01:44 18,8 C 18,3 C 17,8 C 87 % 1028,1 hPa 0,0 l/m 0 min 0 min 0 W/m 3,2 km/h (1 Bft) 97,83 %
13.09.2019 01:46 18,8 C 18,3 C 17,8 C 87 % 1028,1 hPa 0,0 l/m 0 min 0 min 0 W/m 6,4 km/h (2 Bft) 95,74 %
13.09.2019 01:48 18,8 C 18,3 C 17,8 C 87 % 1028,1 hPa 0,0 l/m 0 min 0 min 0 W/m 6,4 km/h (2 Bft) 95,74 %
13.09.2019 01:50 18,9 C 18,3 C 17,8 C 87 % 1028,1 hPa 0,0 l/m 0 min 0 min 0 W/m 6,4 km/h (2 Bft) 97,87 %
13.09.2019 01:52 18,9 C 18,3 C 17,8 C 87 % 1028,0 hPa 0,0 l/m 0 min 0 min 0 W/m 9,7 km/h (2 Bft) 100,00 %
13.09.2019 01:54 18,9 C 18,3 C 17,8 C 87 % 1028,0 hPa 0,0 l/m 0 min 0 min 0 W/m 9,7 km/h (2 Bft) 100,00 %
13.09.2019 01:56 18,9 C 18,3 C 17,8 C 87 % 1028,0 hPa 0,0 l/m 0 min 0 min 0 W/m 3,2 km/h (1 Bft) 100,00 %
13.09.2019 01:58 18,9 C 18,3 C 17,8 C 87 % 1028,2 hPa 0,0 l/m 0 min 0 min 0 W/m 9,7 km/h (2 Bft) 100,00 %
13.09.2019 02:00 18,9 C 18,3 C 17,8 C 87 % 1028,2 hPa 0,0 l/m 0 min 0 min 0 W/m 3,2 km/h (1 Bft) 100,00 %
13.09.2019 02:02 19,0 C 18,3 C 17,8 C 87 % 1028,1 hPa 0,0 l/m 0 min 0 min 0 W/m 0,0 km/h (0 Bft) 100,00 %
13.09.2019 02:04 19,0 C 18,3 C 17,8 C 87 % 1028,1 hPa 0,0 l/m 0 min 0 min 0 W/m 6,4 km/h (2 Bft) 100,00 %
13.09.2019 02:06 19,0 C 18,3 C 17,8 C 87 % 1028,1 hPa 0,0 l/m 0 min 0 min 0 W/m 3,2 km/h (1 Bft) 100,00 %
13.09.2019 02:08 19,0 C 18,3 C 17,8 C 87 % 1028,0 hPa 0,0 l/m 0 min 0 min 0 W/m 9,7 km/h (2 Bft) 100,00 %
13.09.2019 02:10 19,0 C 18,3 C 17,8 C 87 % 1028,1 hPa 0,0 l/m 0 min 0 min 0 W/m 3,2 km/h (1 Bft) 97,87 %
13.09.2019 02:12 19,1 C 18,3 C 17,8 C 87 % 1028,1 hPa 0,0 l/m 0 min 0 min 0 W/m 9,7 km/h (2 Bft) 97,87 %
13.09.2019 02:14 19,0 C 18,3 C 17,8 C 87 % 1028,1 hPa 0,0 l/m 0 min 0 min 0 W/m 9,7 km/h (2 Bft) 100,00 %
13.09.2019 02:16 19,1 C 18,3 C 17,8 C 87 % 1028,2 hPa 0,0 l/m 0 min 0 min 0 W/m 3,2 km/h (1 Bft) 97,87 %
13.09.2019 02:18 19,1 C 18,3 C 17,8 C 87 % 1028,1 hPa 0,0 l/m 0 min 0 min 0 W/m 6,4 km/h (2 Bft) 100,00 %
13.09.2019 02:20 19,1 C 18,3 C 17,8 C 87 % 1028,1 hPa 0,0 l/m 0 min 0 min 0 W/m 12,9 km/h (3 Bft) 100,00 %
13.09.2019 02:22 19,1 C 18,3 C 17,8 C 87 % 1028,1 hPa 0,0 l/m 0 min 0 min 0 W/m 0,0 km/h (0 Bft) 97,87 %
13.09.2019 02:24 19,1 C 18,3 C 17,8 C 87 % 1028,1 hPa 0,0 l/m 0 min 0 min 0 W/m 3,2 km/h (1 Bft) 100,00 %
13.09.2019 02:26 19,1 C 18,3 C 17,8 C 87 % 1028,1 hPa 0,0 l/m 0 min 0 min 0 W/m 6,4 km/h (2 Bft) 95,74 %
13.09.2019 02:28 19,1 C 18,3 C 17,8 C 87 % 1028,1 hPa 0,0 l/m 0 min 0 min 0 W/m 9,7 km/h (2 Bft) 97,87 %
13.09.2019 02:30 19,1 C 18,3 C 17,8 C 87 % 1028,1 hPa 0,0 l/m 0 min 0 min 0 W/m 3,2 km/h (1 Bft) 97,83 %
13.09.2019 02:32 19,1 C 18,3 C 17,8 C 87 % 1028,2 hPa 0,0 l/m 0 min 0 min 0 W/m 9,7 km/h (2 Bft) 97,87 %
13.09.2019 02:34 19,1 C 18,3 C 17,8 C 87 % 1028,2 hPa 0,0 l/m 0 min 0 min 0 W/m 12,9 km/h (3 Bft) 97,87 %
13.09.2019 02:36 19,0 C 18,3 C 17,8 C 87 % 1028,3 hPa 0,0 l/m 0 min 0 min 0 W/m 3,2 km/h (1 Bft) 95,74 %
13.09.2019 02:38 19,0 C 18,3 C 17,8 C 87 % 1028,2 hPa 0,0 l/m 0 min 0 min 0 W/m 6,4 km/h (2 Bft) 97,87 %
13.09.2019 02:40 19,0 C 17,8 C 17,8 C 87 % 1028,2 hPa 0,0 l/m 0 min 0 min 0 W/m 3,2 km/h (1 Bft) 97,87 %
13.09.2019 02:42 19,0 C 17,8 C 17,8 C 87 % 1028,2 hPa 0,0 l/m 0 min 0 min 0 W/m 6,4 km/h (2 Bft) 95,65 %
13.09.2019 02:44 19,0 C 17,8 C 17,8 C 87 % 1028,3 hPa 0,0 l/m 0 min 0 min 0 W/m 6,4 km/h (2 Bft) 97,87 %
13.09.2019 02:46 19,0 C 17,8 C 17,8 C 87 % 1028,3 hPa 0,0 l/m 0 min 0 min 0 W/m 3,2 km/h (1 Bft) 95,74 %
13.09.2019 02:48 18,9 C 17,8 C 17,8 C 87 % 1028,2 hPa 0,0 l/m 0 min 0 min 0 W/m 3,2 km/h (1 Bft) 95,74 %
13.09.2019 02:50 18,9 C 17,8 C 17,8 C 87 % 1028,3 hPa 0,0 l/m 0 min 0 min 0 W/m 3,2 km/h (1 Bft) 95,74 %
13.09.2019 02:52 18,9 C 17,8 C 17,8 C 87 % 1028,2 hPa 0,0 l/m 0 min 0 min 0 W/m 6,4 km/h (2 Bft) 93,62 %
13.09.2019 02:54 18,9 C 17,8 C 17,8 C 87 % 1028,2 hPa 0,0 l/m 0 min 0 min 0 W/m 3,2 km/h (1 Bft) 95,65 %
13.09.2019 02:56 18,9 C 17,8 C 17,8 C 87 % 1028,2 hPa 0,0 l/m 0 min 0 min 0 W/m 0,0 km/h (0 Bft) 95,74 %
13.09.2019 02:58 18,9 C 17,8 C 17,8 C 87 % 1028,2 hPa 0,0 l/m 0 min 0 min 0 W/m 3,2 km/h (1 Bft) 93,62 %
13.09.2019 03:00 18,9 C 17,8 C 17,8 C 87 % 1028,1 hPa 0,0 l/m 0 min 0 min 0 W/m 3,2 km/h (1 Bft) 95,74 %
13.09.2019 03:02 18,9 C 17,8 C 17,8 C 87 % 1028,1 hPa 0,0 l/m 0 min 0 min 0 W/m 3,2 km/h (1 Bft) 95,74 %
13.09.2019 03:04 18,9 C 17,8 C 17,8 C 87 % 1028,1 hPa 0,0 l/m 0 min 0 min 0 W/m 3,2 km/h (1 Bft) 95,65 %
13.09.2019 03:06 18,8 C 17,8 C 17,8 C 87 % 1028,2 hPa 0,0 l/m 0 min 0 min 0 W/m 6,4 km/h (2 Bft) 95,74 %
13.09.2019 03:08 18,8 C 17,8 C 17,8 C 87 % 1028,3 hPa 0,0 l/m 0 min 0 min 0 W/m 3,2 km/h (1 Bft) 95,74 %
13.09.2019 03:10 18,8 C 17,8 C 17,8 C 86 % 1028,3 hPa 0,0 l/m 0 min 0 min 0 W/m 3,2 km/h (1 Bft) 95,74 %
13.09.2019 03:12 18,8 C 17,8 C 17,8 C 86 % 1028,2 hPa 0,0 l/m 0 min 0 min 0 W/m 3,2 km/h (1 Bft) 93,62 %
13.09.2019 03:14 18,8 C 17,8 C 17,8 C 86 % 1028,3 hPa 0,0 l/m 0 min 0 min 0 W/m 9,7 km/h (2 Bft) 91,49 %
13.09.2019 03:16 18,7 C 17,8 C 17,8 C 86 % 1028,2 hPa 0,0 l/m 0 min 0 min 0 W/m 0,0 km/h (0 Bft) 93,48 %
13.09.2019 03:18 18,7 C 17,8 C 17,2 C 85 % 1028,3 hPa 0,0 l/m 0 min 0 min 0 W/m 6,4 km/h (2 Bft) 95,74 %
13.09.2019 03:20 18,7 C 17,8 C 17,2 C 85 % 1028,2 hPa 0,0 l/m 0 min 0 min 0 W/m 0,0 km/h (0 Bft) 97,87 %
13.09.2019 03:22 18,7 C 17,8 C 17,2 C 85 % 1028,3 hPa 0,0 l/m 0 min 0 min 0 W/m 3,2 km/h (1 Bft) 97,87 %
13.09.2019 03:24 18,7 C 17,8 C 17,2 C 85 % 1028,3 hPa 0,0 l/m 0 min 0 min 0 W/m 6,4 km/h (2 Bft) 97,87 %
13.09.2019 03:26 18,7 C 17,8 C 17,2 C 85 % 1028,3 hPa 0,0 l/m 0 min 0 min 0 W/m 9,7 km/h (2 Bft) 97,87 %
13.09.2019 03:28 18,7 C 17,8 C 17,2 C 84 % 1028,3 hPa 0,0 l/m 0 min 0 min 0 W/m 6,4 km/h (2 Bft) 97,83 %
13.09.2019 03:30 18,6 C 17,8 C 17,2 C 84 % 1028,3 hPa 0,0 l/m 0 min 0 min 0 W/m 9,7 km/h (2 Bft) 97,87 %
13.09.2019 03:32 18,6 C 17,8 C 17,2 C 84 % 1028,2 hPa 0,0 l/m 0 min 0 min 0 W/m 3,2 km/h (1 Bft) 97,87 %
13.09.2019 03:34 18,6 C 17,8 C 17,2 C 84 % 1028,2 hPa 0,0 l/m 0 min 0 min 0 W/m 9,7 km/h (2 Bft) 97,87 %
13.09.2019 03:36 18,6 C 17,8 C 17,2 C 84 % 1028,1 hPa 0,0 l/m 0 min 0 min 0 W/m 3,2 km/h (1 Bft) 100,00 %
13.09.2019 03:38 18,6 C 17,8 C 17,2 C 84 % 1028,2 hPa 0,0 l/m 0 min 0 min 0 W/m 9,7 km/h (2 Bft) 100,00 %
13.09.2019 03:40 18,6 C 17,8 C 17,2 C 84 % 1028,3 hPa 0,0 l/m 0 min 0 min 0 W/m 6,4 km/h (2 Bft) 97,83 %
13.09.2019 03:42 18,6 C 17,8 C 17,2 C 84 % 1028,2 hPa 0,0 l/m 0 min 0 min 0 W/m 12,9 km/h (3 Bft) 97,87 %
13.09.2019 03:44 18,6 C 17,8 C 17,2 C 84 % 1028,2 hPa 0,0 l/m 0 min 0 min 0 W/m 9,7 km/h (2 Bft) 97,87 %
13.09.2019 03:46 18,6 C 17,8 C 17,2 C 84 % 1028,3 hPa 0,0 l/m 0 min 0 min 0 W/m 9,7 km/h (2 Bft) 95,74 %
13.09.2019 03:48 18,6 C 17,8 C 17,2 C 84 % 1028,3 hPa 0,0 l/m 0 min 0 min 0 W/m 6,4 km/h (2 Bft) 100,00 %
13.09.2019 03:50 18,6 C 17,8 C 17,2 C 84 % 1028,3 hPa 0,0 l/m 0 min 0 min 0 W/m 6,4 km/h (2 Bft) 100,00 %
13.09.2019 03:52 18,5 C 17,8 C 17,2 C 84 % 1028,4 hPa 0,0 l/m 0 min 0 min 0 W/m 3,2 km/h (1 Bft) 97,83 %
13.09.2019 03:54 18,5 C 17,8 C 17,2 C 84 % 1028,4 hPa 0,0 l/m 0 min 0 min 0 W/m 6,4 km/h (2 Bft) 97,87 %
13.09.2019 03:56 18,5 C 17,8 C 17,2 C 84 % 1028,5 hPa 0,0 l/m 0 min 0 min 0 W/m 9,7 km/h (2 Bft) 97,87 %
13.09.2019 03:58 18,5 C 17,8 C 17,2 C 84 % 1028,5 hPa 0,0 l/m 0 min 0 min 0 W/m 6,4 km/h (2 Bft) 100,00 %
13.09.2019 04:00 18,5 C 17,8 C 17,2 C 84 % 1028,5 hPa 0,0 l/m 0 min 0 min 0 W/m 3,2 km/h (1 Bft) 97,87 %
13.09.2019 04:02 18,5 C 17,8 C 17,2 C 84 % 1028,5 hPa 0,0 l/m 0 min 0 min 0 W/m 3,2 km/h (1 Bft) 100,00 %
13.09.2019 04:04 18,5 C 17,8 C 17,2 C 84 % 1028,6 hPa 0,0 l/m 0 min 0 min 0 W/m 6,4 km/h (2 Bft) 95,65 %
13.09.2019 04:06 18,4 C 17,2 C 17,2 C 84 % 1028,5 hPa 0,0 l/m 0 min 0 min 0 W/m 16,1 km/h (3 Bft) 97,87 %
13.09.2019 04:08 18,4 C 17,2 C 17,2 C 85 % 1028,5 hPa 0,0 l/m 0 min 0 min 0 W/m 12,9 km/h (3 Bft) 97,87 %
13.09.2019 04:10 18,4 C 17,2 C 17,2 C 85 % 1028,5 hPa 0,0 l/m 0 min 0 min 0 W/m 9,7 km/h (2 Bft) 97,87 %
13.09.2019 04:12 18,4 C 17,2 C 17,2 C 85 % 1028,5 hPa 0,0 l/m 0 min 0 min 0 W/m 6,4 km/h (2 Bft) 98,00 %
13.09.2019 04:14 18,4 C 17,2 C 17,2 C 85 % 1028,6 hPa 0,0 l/m 0 min 0 min 0 W/m 12,9 km/h (3 Bft) 97,83 %
13.09.2019 04:16 18,4 C 17,2 C 17,2 C 85 % 1028,6 hPa 0,0 l/m 0 min 0 min 0 W/m 22,5 km/h (4 Bft) 97,87 %
13.09.2019 04:18 18,4 C 17,2 C 17,2 C 85 % 1028,6 hPa 0,0 l/m 0 min 0 min 0 W/m 9,7 km/h (2 Bft) 97,87 %
13.09.2019 04:20 18,4 C 17,2 C 17,2 C 85 % 1028,6 hPa 0,0 l/m 0 min 0 min 0 W/m 9,7 km/h (2 Bft) 97,87 %
13.09.2019 04:22 18,4 C 17,2 C 17,2 C 85 % 1028,6 hPa 0,0 l/m 0 min 0 min 0 W/m 6,4 km/h (2 Bft) 97,87 %
13.09.2019 04:24 18,3 C 17,2 C 17,2 C 85 % 1028,6 hPa 0,0 l/m 0 min 0 min 0 W/m 9,7 km/h (2 Bft) 97,87 %
13.09.2019 04:26 18,3 C 17,2 C 17,2 C 85 % 1028,5 hPa 0,0 l/m 0 min 0 min 0 W/m 3,2 km/h (1 Bft) 97,83 %
13.09.2019 04:28 18,3 C 17,2 C 17,2 C 85 % 1028,6 hPa 0,0 l/m 0 min 0 min 0 W/m 6,4 km/h (2 Bft) 97,87 %
13.09.2019 04:30 18,3 C 17,2 C 17,2 C 85 % 1028,6 hPa 0,0 l/m 0 min 0 min 0 W/m 6,4 km/h (2 Bft) 97,87 %
13.09.2019 04:32 18,3 C 17,2 C 17,2 C 85 % 1028,6 hPa 0,0 l/m 0 min 0 min 0 W/m 3,2 km/h (1 Bft) 95,74 %
13.09.2019 04:34 18,3 C 17,2 C 17,2 C 86 % 1028,6 hPa 0,0 l/m 0 min 0 min 0 W/m 3,2 km/h (1 Bft) 95,74 %
13.09.2019 04:36 18,3 C 17,2 C 17,2 C 86 % 1028,5 hPa 0,0 l/m 0 min 0 min 0 W/m 3,2 km/h (1 Bft) 97,87 %
13.09.2019 04:38 18,3 C 17,2 C 17,2 C 86 % 1028,6 hPa 0,0 l/m 0 min 0 min 0 W/m 3,2 km/h (1 Bft) 97,83 %
13.09.2019 04:40 18,3 C 17,2 C 17,2 C 86 % 1028,5 hPa 0,0 l/m 0 min 0 min 0 W/m 6,4 km/h (2 Bft) 97,87 %
13.09.2019 04:42 18,2 C 17,2 C 16,7 C 86 % 1028,5 hPa 0,0 l/m 0 min 0 min 0 W/m 3,2 km/h (1 Bft) 97,87 %
13.09.2019 04:44 18,2 C 17,2 C 16,7 C 86 % 1028,5 hPa 0,0 l/m 0 min 0 min 0 W/m 6,4 km/h (2 Bft) 97,87 %
13.09.2019 04:46 18,2 C 17,2 C 16,7 C 86 % 1028,6 hPa 0,0 l/m 0 min 0 min 0 W/m 3,2 km/h (1 Bft) 95,74 %
13.09.2019 04:48 18,2 C 17,2 C 16,7 C 86 % 1028,6 hPa 0,0 l/m 0 min 0 min 0 W/m 9,7 km/h (2 Bft) 97,87 %
13.09.2019 04:50 18,2 C 17,2 C 16,7 C 86 % 1028,6 hPa 0,0 l/m 0 min 0 min 0 W/m 3,2 km/h (1 Bft) 97,83 %
13.09.2019 04:52 18,2 C 17,2 C 16,7 C 86 % 1028,6 hPa 0,0 l/m 0 min 0 min 0 W/m 3,2 km/h (1 Bft) 100,00 %
13.09.2019 04:54 18,2 C 17,2 C 16,7 C 87 % 1028,6 hPa 0,0 l/m 0 min 0 min 0 W/m 9,7 km/h (2 Bft) 97,87 %
13.09.2019 04:56 18,1 C 17,2 C 16,7 C 87 % 1028,6 hPa 0,0 l/m 0 min 0 min 0 W/m 6,4 km/h (2 Bft) 95,74 %
13.09.2019 04:58 18,1 C 17,2 C 16,7 C 87 % 1028,6 hPa 0,0 l/m 0 min 0 min 0 W/m 6,4 km/h (2 Bft) 100,00 %
13.09.2019 05:00 18,1 C 17,2 C 16,7 C 87 % 1028,6 hPa 0,0 l/m 0 min 0 min 0 W/m 0,0 km/h (0 Bft) 97,83 %
13.09.2019 05:02 18,1 C 17,2 C 16,7 C 87 % 1028,6 hPa 0,0 l/m 0 min 0 min 0 W/m 6,4 km/h (2 Bft) 100,00 %
13.09.2019 05:04 18,1 C 17,2 C 16,7 C 87 % 1028,6 hPa 0,0 l/m 0 min 0 min 0 W/m 3,2 km/h (1 Bft) 100,00 %
13.09.2019 05:06 18,1 C 17,2 C 16,7 C 87 % 1028,5 hPa 0,0 l/m 0 min 0 min 0 W/m 3,2 km/h (1 Bft) 97,87 %
13.09.2019 05:08 18,1 C 17,2 C 16,7 C 87 % 1028,6 hPa 0,0 l/m 0 min 0 min 0 W/m 0,0 km/h (0 Bft) 100,00 %
13.09.2019 05:10 18,1 C 17,2 C 16,7 C 87 % 1028,5 hPa 0,0 l/m 0 min 0 min 0 W/m 0,0 km/h (0 Bft) 97,87 %
13.09.2019 05:12 18,1 C 17,2 C 16,7 C 87 % 1028,5 hPa 0,0 l/m 0 min 0 min 0 W/m 3,2 km/h (1 Bft) 97,83 %
13.09.2019 05:14 18,1 C 17,2 C 16,7 C 87 % 1028,5 hPa 0,0 l/m 0 min 0 min 0 W/m 3,2 km/h (1 Bft) 95,74 %
13.09.2019 05:16 18,1 C 17,2 C 16,7 C 87 % 1028,5 hPa 0,0 l/m 0 min 0 min 0 W/m 16,1 km/h (3 Bft) 100,00 %
13.09.2019 05:18 18,1 C 17,2 C 16,7 C 87 % 1028,6 hPa 0,0 l/m 0 min 0 min 0 W/m 3,2 km/h (1 Bft) 100,00 %
13.09.2019 05:20 18,1 C 17,2 C 16,7 C 87 % 1028,6 hPa 0,0 l/m 0 min 0 min 0 W/m 3,2 km/h (1 Bft) 100,00 %
13.09.2019 05:22 18,1 C 17,2 C 16,7 C 87 % 1028,6 hPa 0,0 l/m 0 min 0 min 0 W/m 9,7 km/h (2 Bft) 100,00 %
13.09.2019 05:24 18,0 C 17,2 C 16,7 C 87 % 1028,6 hPa 0,0 l/m 0 min 0 min 0 W/m 9,7 km/h (2 Bft) 97,83 %
13.09.2019 05:26 18,0 C 17,2 C 16,7 C 87 % 1028,6 hPa 0,0 l/m 0 min 0 min 0 W/m 3,2 km/h (1 Bft) 97,87 %
13.09.2019 05:28 18,0 C 17,2 C 16,7 C 87 % 1028,5 hPa 0,0 l/m 0 min 0 min 0 W/m 9,7 km/h (2 Bft) 97,87 %
13.09.2019 05:30 18,0 C 17,2 C 16,7 C 87 % 1028,6 hPa 0,0 l/m 0 min 0 min 0 W/m 9,7 km/h (2 Bft) 97,87 %
13.09.2019 05:32 18,0 C 17,2 C 16,7 C 87 % 1028,5 hPa 0,0 l/m 0 min 0 min 0 W/m 3,2 km/h (1 Bft) 97,87 %
13.09.2019 05:34 18,0 C 17,2 C 16,7 C 87 % 1028,6 hPa 0,0 l/m 0 min 0 min 0 W/m 12,9 km/h (3 Bft) 95,74 %
13.09.2019 05:36 18,0 C 17,2 C 16,7 C 87 % 1028,6 hPa 0,0 l/m 0 min 0 min 0 W/m 3,2 km/h (1 Bft) 95,65 %
13.09.2019 05:38 17,9 C 16,7 C 16,7 C 88 % 1028,6 hPa 0,0 l/m 0 min 0 min 0 W/m 3,2 km/h (1 Bft) 97,87 %
13.09.2019 05:40 17,9 C 16,7 C 16,7 C 88 % 1028,6 hPa 0,0 l/m 0 min 0 min 0 W/m 3,2 km/h (1 Bft) 97,87 %
13.09.2019 05:42 17,9 C 16,7 C 16,7 C 88 % 1028,6 hPa 0,0 l/m 0 min 0 min 0 W/m 6,4 km/h (2 Bft) 97,87 %
13.09.2019 05:44 17,9 C 16,7 C 16,7 C 88 % 1028,5 hPa 0,0 l/m 0 min 0 min 0 W/m 6,4 km/h (2 Bft) 95,74 %
13.09.2019 05:46 17,9 C 16,7 C 16,7 C 88 % 1028,5 hPa 0,0 l/m 0 min 0 min 0 W/m 9,7 km/h (2 Bft) 95,74 %
13.09.2019 05:48 17,9 C 16,7 C 16,7 C 88 % 1028,5 hPa 0,0 l/m 0 min 0 min 0 W/m 0,0 km/h (0 Bft) 95,65 %
13.09.2019 05:50 17,9 C 16,7 C 16,7 C 88 % 1028,6 hPa 0,0 l/m 0 min 0 min 0 W/m 6,4 km/h (2 Bft) 93,62 %
13.09.2019 05:52 17,9 C 16,7 C 16,7 C 88 % 1028,6 hPa 0,0 l/m 0 min 0 min 0 W/m 6,4 km/h (2 Bft) 93,62 %
13.09.2019 05:54 17,9 C 16,7 C 16,7 C 88 % 1028,7 hPa 0,0 l/m 0 min 0 min 0 W/m 0,0 km/h (0 Bft) 95,74 %
13.09.2019 05:56 17,9 C 16,7 C 16,7 C 88 % 1028,7 hPa 0,0 l/m 0 min 0 min 0 W/m 6,4 km/h (2 Bft) 95,74 %
13.09.2019 05:58 17,9 C 16,7 C 16,7 C 88 % 1028,7 hPa 0,0 l/m 0 min 0 min 0 W/m 9,7 km/h (2 Bft) 95,65 %
13.09.2019 06:00 17,9 C 16,7 C 16,7 C 88 % 1028,6 hPa 0,0 l/m 0 min 0 min 0 W/m 9,7 km/h (2 Bft) 95,74 %
13.09.2019 06:02 17,9 C 16,7 C 16,7 C 88 % 1028,7 hPa 0,0 l/m 0 min 0 min 0 W/m 12,9 km/h (3 Bft) 95,74 %
13.09.2019 06:04 17,8 C 16,7 C 16,7 C 89 % 1028,8 hPa 0,0 l/m 0 min 0 min 0 W/m 9,7 km/h (2 Bft) 95,74 %
13.09.2019 06:08 17,8 C 16,7 C 16,7 C 89 % 1028,8 hPa 0,0 l/m 0 min 0 min 0 W/m 6,4 km/h (2 Bft) 94,68 %
13.09.2019 06:10 17,8 C 16,7 C 16,7 C 89 % 1028,8 hPa 0,0 l/m 0 min 0 min 0 W/m 6,4 km/h (2 Bft) 95,65 %
13.09.2019 06:12 17,8 C 16,7 C 16,7 C 89 % 1028,9 hPa 0,0 l/m 0 min 0 min 0 W/m 6,4 km/h (2 Bft) 95,74 %
13.09.2019 06:14 17,8 C 16,7 C 16,7 C 89 % 1028,9 hPa 0,0 l/m 0 min 0 min 0 W/m 12,9 km/h (3 Bft) 95,74 %
13.09.2019 06:16 17,8 C 16,7 C 16,7 C 89 % 1029,0 hPa 0,0 l/m 0 min 0 min 0 W/m 6,4 km/h (2 Bft) 97,87 %
13.09.2019 06:18 17,8 C 16,7 C 16,7 C 89 % 1029,0 hPa 0,0 l/m 0 min 0 min 0 W/m 3,2 km/h (1 Bft) 97,87 %
13.09.2019 06:20 17,8 C 16,7 C 16,7 C 89 % 1029,1 hPa 0,0 l/m 0 min 0 min 0 W/m 6,4 km/h (2 Bft) 97,87 %
13.09.2019 06:22 17,8 C 16,7 C 16,7 C 89 % 1029,1 hPa 0,0 l/m 0 min 0 min 0 W/m 6,4 km/h (2 Bft) 93,48 %
13.09.2019 06:24 17,8 C 16,7 C 16,7 C 89 % 1029,1 hPa 0,0 l/m 0 min 0 min 0 W/m 6,4 km/h (2 Bft) 97,87 %
13.09.2019 06:26 17,8 C 16,7 C 16,7 C 89 % 1029,1 hPa 0,0 l/m 0 min 0 min 0 W/m 12,9 km/h (3 Bft) 97,87 %
13.09.2019 06:28 17,8 C 16,7 C 16,7 C 89 % 1029,2 hPa 0,0 l/m 0 min 0 min 0 W/m 6,4 km/h (2 Bft) 97,87 %
13.09.2019 06:30 17,8 C 16,7 C 16,7 C 89 % 1029,1 hPa 0,0 l/m 0 min 0 min 0 W/m 6,4 km/h (2 Bft) 97,87 %
13.09.2019 06:32 17,7 C 16,7 C 16,7 C 89 % 1029,1 hPa 0,0 l/m 0 min 0 min 0 W/m 12,9 km/h (3 Bft) 97,87 %
13.09.2019 06:34 17,7 C 16,7 C 16,7 C 89 % 1029,1 hPa 0,0 l/m 0 min 0 min 0 W/m 12,9 km/h (3 Bft) 97,83 %
13.09.2019 06:36 17,7 C 16,7 C 16,7 C 89 % 1029,1 hPa 0,0 l/m 0 min 0 min 0 W/m 3,2 km/h (1 Bft) 97,87 %
13.09.2019 06:38 17,7 C 16,7 C 16,7 C 89 % 1029,2 hPa 0,0 l/m 0 min 0 min 0 W/m 6,4 km/h (2 Bft) 97,87 %
13.09.2019 06:40 17,7 C 16,7 C 16,7 C 89 % 1029,2 hPa 0,0 l/m 0 min 0 min 0 W/m 3,2 km/h (1 Bft) 97,87 %
13.09.2019 06:42 17,7 C 16,7 C 16,7 C 90 % 1029,3 hPa 0,0 l/m 0 min 0 min 0 W/m 6,4 km/h (2 Bft) 97,87 %
13.09.2019 06:44 17,7 C 16,7 C 16,7 C 90 % 1029,2 hPa 0,0 l/m 0 min 0 min 0 W/m 9,7 km/h (2 Bft) 93,62 %
13.09.2019 06:46 17,7 C 16,7 C 16,7 C 90 % 1029,3 hPa 0,0 l/m 0 min 0 min 0 W/m 6,4 km/h (2 Bft) 100,00 %
13.09.2019 06:48 17,7 C 16,7 C 16,7 C 90 % 1029,2 hPa 0,0 l/m 0 min 0 min 0 W/m 3,2 km/h (1 Bft) 97,87 %
13.09.2019 06:50 17,7 C 16,7 C 16,7 C 90 % 1029,3 hPa 0,0 l/m 0 min 0 min 0 W/m 12,9 km/h (3 Bft) 100,00 %
13.09.2019 06:52 17,7 C 16,7 C 16,7 C 90 % 1029,3 hPa 0,0 l/m 0 min 0 min 0 W/m 9,7 km/h (2 Bft) 97,87 %
13.09.2019 06:54 17,7 C 16,7 C 16,7 C 90 % 1029,3 hPa 0,0 l/m 0 min 0 min 0 W/m 3,2 km/h (1 Bft) 100,00 %
13.09.2019 06:56 17,7 C 16,7 C 16,7 C 90 % 1029,2 hPa 0,0 l/m 0 min 0 min 0 W/m 3,2 km/h (1 Bft) 100,00 %
13.09.2019 06:58 17,6 C 16,7 C 16,7 C 90 % 1029,3 hPa 0,0 l/m 0 min 0 min 0 W/m 3,2 km/h (1 Bft) 97,83 %
13.09.2019 07:00 17,6 C 16,7 C 16,7 C 90 % 1029,3 hPa 0,0 l/m 0 min 0 min 0 W/m 3,2 km/h (1 Bft) 95,74 %
13.09.2019 07:02 17,6 C 16,7 C 16,7 C 90 % 1029,3 hPa 0,0 l/m 0 min 0 min 0 W/m 3,2 km/h (1 Bft) 100,00 %
13.09.2019 07:04 17,6 C 16,7 C 16,7 C 90 % 1029,4 hPa 0,0 l/m 0 min 0 min 0 W/m 3,2 km/h (1 Bft) 100,00 %
13.09.2019 07:06 17,6 C 16,7 C 16,7 C 90 % 1029,5 hPa 0,0 l/m 0 min 0 min 0 W/m 0,0 km/h (0 Bft) 97,87 %
13.09.2019 07:08 17,6 C 16,7 C 16,7 C 90 % 1029,5 hPa 0,0 l/m 0 min 0 min 0 W/m 6,4 km/h (2 Bft) 97,87 %
13.09.2019 07:10 17,6 C 16,7 C 16,7 C 90 % 1029,5 hPa 0,0 l/m 0 min 0 min 0 W/m 9,7 km/h (2 Bft) 100,00 %
13.09.2019 07:12 17,6 C 16,7 C 16,7 C 90 % 1029,6 hPa 0,0 l/m 0 min 0 min 0 W/m 6,4 km/h (2 Bft) 97,87 %
13.09.2019 07:14 17,6 C 16,7 C 16,7 C 91 % 1029,5 hPa 0,0 l/m 0 min 0 min 0 W/m 6,4 km/h (2 Bft) 97,87 %
13.09.2019 07:16 17,6 C 16,7 C 16,7 C 91 % 1029,6 hPa 0,0 l/m 0 min 0 min 0 W/m 3,2 km/h (1 Bft) 97,87 %
13.09.2019 07:18 17,6 C 16,7 C 16,1 C 91 % 1029,6 hPa 0,0 l/m 0 min 0 min 0 W/m 0,0 km/h (0 Bft) 95,74 %
13.09.2019 07:20 17,6 C 16,7 C 16,1 C 91 % 1029,6 hPa 0,0 l/m 0 min 0 min 0 W/m 6,4 km/h (2 Bft) 97,87 %
13.09.2019 07:22 17,5 C 16,7 C 16,1 C 91 % 1029,7 hPa 0,0 l/m 0 min 0 min 0 W/m 9,7 km/h (2 Bft) 97,83 %
13.09.2019 07:24 17,5 C 16,7 C 16,1 C 91 % 1029,7 hPa 0,0 l/m 0 min 0 min 0 W/m 6,4 km/h (2 Bft) 97,87 %
13.09.2019 07:26 17,5 C 16,7 C 16,1 C 91 % 1029,7 hPa 0,0 l/m 0 min 0 min 0 W/m 6,4 km/h (2 Bft) 97,87 %
13.09.2019 07:28 17,5 C 16,7 C 16,1 C 91 % 1029,8 hPa 0,0 l/m 0 min 0 min 0 W/m 6,4 km/h (2 Bft) 97,87 %
13.09.2019 07:30 17,5 C 16,7 C 16,1 C 91 % 1029,8 hPa 0,0 l/m 0 min 0 min 0 W/m 3,2 km/h (1 Bft) 97,87 %
13.09.2019 07:32 17,5 C 16,7 C 16,1 C 91 % 1029,9 hPa 0,0 l/m 0 min 0 min 0 W/m 6,4 km/h (2 Bft) 97,87 %
13.09.2019 07:34 17,5 C 16,7 C 16,1 C 91 % 1029,9 hPa 0,0 l/m 0 min 0 min 4 W/m 3,2 km/h (1 Bft) 97,83 %
13.09.2019 07:36 17,5 C 16,7 C 16,1 C 91 % 1029,9 hPa 0,0 l/m 0 min 0 min 5 W/m 6,4 km/h (2 Bft) 97,87 %
13.09.2019 07:38 17,5 C 16,7 C 16,1 C 91 % 1030,0 hPa 0,0 l/m 0 min 0 min 5 W/m 3,2 km/h (1 Bft) 97,87 %
13.09.2019 07:40 17,4 C 16,1 C 16,1 C 91 % 1030,0 hPa 0,0 l/m 0 min 0 min 5 W/m 3,2 km/h (1 Bft) 97,87 %
13.09.2019 07:42 17,4 C 16,1 C 15,6 C 91 % 1030,0 hPa 0,0 l/m 0 min 0 min 5 W/m 3,2 km/h (1 Bft) 97,87 %
13.09.2019 07:44 17,4 C 16,1 C 15,6 C 91 % 1030,1 hPa 0,0 l/m 0 min 0 min 5 W/m 6,4 km/h (2 Bft) 97,83 %
13.09.2019 07:46 17,4 C 16,1 C 15,6 C 91 % 1030,1 hPa 0,0 l/m 0 min 0 min 5 W/m 3,2 km/h (1 Bft) 95,74 %
13.09.2019 07:48 17,4 C 16,1 C 15,6 C 91 % 1030,1 hPa 0,0 l/m 0 min 0 min 5 W/m 3,2 km/h (1 Bft) 97,87 %
13.09.2019 07:50 17,4 C 16,1 C 15,6 C 92 % 1030,2 hPa 0,0 l/m 0 min 0 min 6 W/m 3,2 km/h (1 Bft) 95,74 %
13.09.2019 07:52 17,4 C 16,1 C 15,6 C 92 % 1030,2 hPa 0,0 l/m 0 min 0 min 7 W/m 6,4 km/h (2 Bft) 93,62 %
13.09.2019 07:54 17,4 C 16,1 C 16,1 C 92 % 1030,2 hPa 0,0 l/m 0 min 0 min 7 W/m 6,4 km/h (2 Bft) 100,00 %
13.09.2019 07:56 17,4 C 16,1 C 16,1 C 92 % 1030,2 hPa 0,0 l/m 0 min 0 min 9 W/m 3,2 km/h (1 Bft) 97,83 %
13.09.2019 07:58 17,4 C 16,1 C 16,1 C 92 % 1030,2 hPa 0,0 l/m 0 min 0 min 9 W/m 0,0 km/h (0 Bft) 97,87 %
13.09.2019 08:00 17,4 C 16,1 C 16,1 C 92 % 1030,3 hPa 0,0 l/m 0 min 0 min 9 W/m 6,4 km/h (2 Bft) 95,74 %
13.09.2019 08:02 17,4 C 16,1 C 16,1 C 92 % 1030,3 hPa 0,0 l/m 0 min 0 min 11 W/m 6,4 km/h (2 Bft) 100,00 %
13.09.2019 08:04 17,4 C 16,1 C 16,1 C 92 % 1030,4 hPa 0,0 l/m 0 min 0 min 11 W/m 9,7 km/h (2 Bft) 97,87 %
13.09.2019 08:06 17,3 C 16,1 C 16,1 C 92 % 1030,4 hPa 0,0 l/m 0 min 0 min 13 W/m 3,2 km/h (1 Bft) 97,87 %
13.09.2019 08:08 17,3 C 16,1 C 16,1 C 92 % 1030,4 hPa 0,0 l/m 0 min 0 min 13 W/m 6,4 km/h (2 Bft) 97,83 %
13.09.2019 08:10 17,3 C 16,1 C 16,1 C 92 % 1030,4 hPa 0,0 l/m 0 min 0 min 13 W/m 3,2 km/h (1 Bft) 95,74 %
13.09.2019 08:12 17,3 C 16,1 C 16,1 C 93 % 1030,5 hPa 0,0 l/m 0 min 0 min 14 W/m 3,2 km/h (1 Bft) 95,74 %
13.09.2019 08:14 17,3 C 16,1 C 16,1 C 93 % 1030,5 hPa 0,0 l/m 0 min 0 min 14 W/m 3,2 km/h (1 Bft) 97,87 %
13.09.2019 08:16 17,3 C 16,1 C 15,6 C 93 % 1030,6 hPa 0,0 l/m 0 min 0 min 13 W/m 6,4 km/h (2 Bft) 95,74 %
13.09.2019 08:18 17,3 C 16,1 C 15,6 C 93 % 1030,6 hPa 0,0 l/m 0 min 0 min 15 W/m 0,0 km/h (0 Bft) 97,87 %
13.09.2019 08:20 17,3 C 16,1 C 15,6 C 93 % 1030,8 hPa 0,0 l/m 0 min 0 min 16 W/m 3,2 km/h (1 Bft) 97,83 %
13.09.2019 08:22 17,3 C 16,1 C 15,6 C 93 % 1030,8 hPa 0,0 l/m 0 min 0 min 18 W/m 3,2 km/h (1 Bft) 97,87 %
13.09.2019 08:24 17,2 C 16,1 C 15,6 C 93 % 1030,9 hPa 0,0 l/m 0 min 0 min 16 W/m 6,4 km/h (2 Bft) 97,87 %
13.09.2019 08:26 17,2 C 16,1 C 15,6 C 93 % 1031,0 hPa 0,0 l/m 0 min 0 min 17 W/m 3,2 km/h (1 Bft) 95,74 %
13.09.2019 08:28 17,2 C 16,1 C 15,6 C 93 % 1031,0 hPa 0,0 l/m 0 min 0 min 16 W/m 3,2 km/h (1 Bft) 97,87 %
13.09.2019 08:30 17,2 C 16,1 C 15,6 C 93 % 1031,1 hPa 0,0 l/m 0 min 0 min 16 W/m 6,4 km/h (2 Bft) 97,87 %
13.09.2019 08:32 17,2 C 16,1 C 15,6 C 93 % 1031,1 hPa 0,0 l/m 0 min 0 min 18 W/m 3,2 km/h (1 Bft) 97,83 %
13.09.2019 08:34 17,2 C 16,1 C 15,6 C 93 % 1031,2 hPa 0,0 l/m 0 min 0 min 24 W/m 3,2 km/h (1 Bft) 97,87 %
13.09.2019 08:36 17,2 C 16,1 C 15,6 C 93 % 1031,3 hPa 0,0 l/m 0 min 0 min 28 W/m 3,2 km/h (1 Bft) 97,87 %
13.09.2019 08:38 17,2 C 16,1 C 15,6 C 93 % 1031,4 hPa 0,0 l/m 0 min 0 min 31 W/m 6,4 km/h (2 Bft) 97,87 %
13.09.2019 08:40 17,2 C 16,1 C 15,6 C 94 % 1031,4 hPa 0,0 l/m 0 min 0 min 33 W/m 3,2 km/h (1 Bft) 97,87 %
13.09.2019 08:42 17,2 C 16,1 C 15,6 C 94 % 1031,5 hPa 0,0 l/m 0 min 0 min 33 W/m 3,2 km/h (1 Bft) 95,74 %
13.09.2019 08:44 17,2 C 16,1 C 15,6 C 94 % 1031,5 hPa 0,0 l/m 0 min 0 min 36 W/m 3,2 km/h (1 Bft) 95,65 %
13.09.2019 08:46 17,2 C 16,1 C 15,6 C 94 % 1031,5 hPa 0,0 l/m 0 min 0 min 35 W/m 6,4 km/h (2 Bft) 97,87 %
13.09.2019 08:48 17,2 C 16,1 C 15,6 C 94 % 1031,5 hPa 0,0 l/m 0 min 0 min 34 W/m 6,4 km/h (2 Bft) 100,00 %
13.09.2019 08:50 17,1 C 15,6 C 15,6 C 94 % 1031,6 hPa 0,0 l/m 0 min 0 min 35 W/m 3,2 km/h (1 Bft) 100,00 %
13.09.2019 08:52 17,1 C 16,1 C 15,6 C 94 % 1031,7 hPa 0,0 l/m 0 min 0 min 38 W/m 0,0 km/h (0 Bft) 100,00 %
13.09.2019 08:54 17,1 C 16,1 C 15,6 C 94 % 1031,8 hPa 0,0 l/m 0 min 0 min 42 W/m 3,2 km/h (1 Bft) 100,00 %
13.09.2019 08:56 17,1 C 16,1 C 15,6 C 95 % 1031,9 hPa 0,0 l/m 0 min 0 min 43 W/m 6,4 km/h (2 Bft) 97,87 %
13.09.2019 08:58 17,1 C 16,1 C 15,6 C 95 % 1032,0 hPa 0,0 l/m 0 min 0 min 39 W/m 0,0 km/h (0 Bft) 100,00 %
13.09.2019 09:00 17,1 C 16,1 C 15,6 C 95 % 1031,9 hPa 0,0 l/m 0 min 2 min 38 W/m 3,2 km/h (1 Bft) 100,00 %
13.09.2019 09:02 17,1 C 16,1 C 15,6 C 95 % 1032,0 hPa 0,0 l/m 0 min 0 min 45 W/m 6,4 km/h (2 Bft) 100,00 %
13.09.2019 09:04 17,1 C 16,1 C 15,6 C 95 % 1032,1 hPa 0,0 l/m 0 min 2 min 42 W/m 3,2 km/h (1 Bft) 95,74 %
13.09.2019 09:06 17,1 C 16,1 C 15,6 C 95 % 1032,1 hPa 0,0 l/m 0 min 2 min 58 W/m 6,4 km/h (2 Bft) 97,83 %
13.09.2019 09:08 17,1 C 16,1 C 15,6 C 95 % 1032,1 hPa 0,0 l/m 0 min 0 min 66 W/m 6,4 km/h (2 Bft) 100,00 %
13.09.2019 09:10 17,1 C 16,1 C 15,6 C 95 % 1032,2 hPa 0,0 l/m 0 min 0 min 65 W/m 6,4 km/h (2 Bft) 97,87 %
13.09.2019 09:12 17,1 C 16,1 C 15,6 C 95 % 1032,2 hPa 0,0 l/m 0 min 0 min 69 W/m 3,2 km/h (1 Bft) 95,74 %
13.09.2019 09:14 17,1 C 16,1 C 15,6 C 95 % 1032,4 hPa 0,0 l/m 0 min 0 min 70 W/m 3,2 km/h (1 Bft) 97,87 %
13.09.2019 09:16 17,1 C 16,1 C 15,6 C 95 % 1032,3 hPa 0,0 l/m 0 min 0 min 72 W/m 0,0 km/h (0 Bft) 97,87 %
13.09.2019 09:18 17,1 C 16,1 C 15,6 C 95 % 1032,3 hPa 0,0 l/m 0 min 0 min 76 W/m 3,2 km/h (1 Bft) 97,83 %
13.09.2019 09:20 17,2 C 16,1 C 15,6 C 95 % 1032,4 hPa 0,0 l/m 0 min 0 min 73 W/m 3,2 km/h (1 Bft) 97,87 %
13.09.2019 09:22 17,2 C 16,1 C 15,6 C 96 % 1032,5 hPa 0,0 l/m 0 min 0 min 65 W/m 3,2 km/h (1 Bft) 97,87 %
13.09.2019 09:24 17,2 C 16,1 C 15,6 C 96 % 1032,5 hPa 0,0 l/m 0 min 0 min 57 W/m 3,2 km/h (1 Bft) 97,87 %
13.09.2019 09:26 17,2 C 16,1 C 15,6 C 96 % 1032,6 hPa 0,0 l/m 0 min 0 min 51 W/m 3,2 km/h (1 Bft) 97,87 %
13.09.2019 09:28 17,2 C 16,1 C 15,6 C 96 % 1032,6 hPa 0,0 l/m 0 min 0 min 51 W/m 3,2 km/h (1 Bft) 95,74 %
13.09.2019 09:30 17,2 C 16,1 C 15,6 C 95 % 1032,7 hPa 0,0 l/m 0 min 2 min 61 W/m 0,0 km/h (0 Bft) 97,83 %
13.09.2019 09:32 17,2 C 16,1 C 15,6 C 96 % 1032,7 hPa 0,0 l/m 0 min 0 min 55 W/m 3,2 km/h (1 Bft) 97,87 %
13.09.2019 09:34 17,2 C 16,1 C 15,6 C 96 % 1032,8 hPa 0,0 l/m 0 min 0 min 54 W/m 9,7 km/h (2 Bft) 95,74 %
13.09.2019 09:36 17,2 C 16,1 C 15,6 C 96 % 1032,8 hPa 0,0 l/m 0 min 2 min 59 W/m 12,9 km/h (3 Bft) 97,87 %
13.09.2019 09:38 17,2 C 16,1 C 15,6 C 96 % 1032,9 hPa 0,0 l/m 0 min 2 min 58 W/m 3,2 km/h (1 Bft) 95,74 %
13.09.2019 09:40 17,2 C 16,1 C 15,6 C 96 % 1033,0 hPa 0,0 l/m 0 min 2 min 62 W/m 3,2 km/h (1 Bft) 95,74 %
13.09.2019 09:42 17,2 C 16,1 C 15,6 C 96 % 1033,1 hPa 0,0 l/m 0 min 2 min 66 W/m 6,4 km/h (2 Bft) 97,83 %
13.09.2019 09:44 17,2 C 16,1 C 15,6 C 96 % 1033,1 hPa 0,0 l/m 0 min 2 min 71 W/m 3,2 km/h (1 Bft) 97,87 %
13.09.2019 09:46 17,2 C 16,1 C 15,6 C 96 % 1033,1 hPa 0,0 l/m 0 min 2 min 78 W/m 3,2 km/h (1 Bft) 97,87 %
13.09.2019 09:48 17,2 C 16,1 C 15,6 C 96 % 1033,1 hPa 0,0 l/m 0 min 0 min 73 W/m 9,7 km/h (2 Bft) 97,87 %
13.09.2019 09:50 17,2 C 16,1 C 15,6 C 96 % 1033,2 hPa 0,0 l/m 0 min 0 min 72 W/m 6,4 km/h (2 Bft) 95,74 %
13.09.2019 09:52 17,2 C 16,1 C 15,6 C 96 % 1033,3 hPa 0,2 l/m 0 min 0 min 74 W/m 3,2 km/h (1 Bft) 97,83 %
13.09.2019 09:54 17,2 C 16,1 C 15,6 C 96 % 1033,3 hPa 0,0 l/m 0 min 0 min 91 W/m 0,0 km/h (0 Bft) 97,87 %
13.09.2019 09:56 17,2 C 16,1 C 15,6 C 96 % 1033,3 hPa 0,0 l/m 0 min 0 min 103 W/m 9,7 km/h (2 Bft) 95,74 %
13.09.2019 09:58 17,2 C 16,1 C 15,6 C 96 % 1033,3 hPa 0,0 l/m 0 min 0 min 91 W/m 6,4 km/h (2 Bft) 95,74 %
13.09.2019 10:00 17,2 C 16,1 C 16,1 C 96 % 1033,3 hPa 0,0 l/m 0 min 0 min 94 W/m 0,0 km/h (0 Bft) 93,62 %
13.09.2019 10:02 17,2 C 16,1 C 16,1 C 96 % 1033,4 hPa 0,0 l/m 0 min 0 min 88 W/m 3,2 km/h (1 Bft) 95,74 %
13.09.2019 10:04 17,2 C 16,7 C 16,1 C 96 % 1033,4 hPa 0,0 l/m 0 min 0 min 84 W/m 0,0 km/h (0 Bft) 95,65 %
13.09.2019 10:06 17,3 C 16,7 C 16,1 C 96 % 1033,5 hPa 0,0 l/m 0 min 0 min 88 W/m 6,4 km/h (2 Bft) 95,74 %
13.09.2019 10:08 17,3 C 16,7 C 16,1 C 96 % 1033,5 hPa 0,0 l/m 0 min 0 min 98 W/m 0,0 km/h (0 Bft) 97,96 %
13.09.2019 10:10 17,3 C 16,7 C 16,1 C 97 % 1033,5 hPa 0,0 l/m 0 min 0 min 128 W/m 0,0 km/h (0 Bft) 100,00 %
13.09.2019 10:12 17,3 C 16,7 C 16,1 C 97 % 1033,5 hPa 0,0 l/m 0 min 0 min 157 W/m 3,2 km/h (1 Bft) 97,87 %
13.09.2019 10:14 17,4 C 17,2 C 16,7 C 97 % 1033,6 hPa 0,0 l/m 0 min 0 min 196 W/m 3,2 km/h (1 Bft) 97,87 %
13.09.2019 10:16 17,4 C 17,2 C 16,7 C 97 % 1033,6 hPa 0,0 l/m 0 min 0 min 197 W/m 3,2 km/h (1 Bft) 97,83 %
13.09.2019 10:18 17,4 C 17,8 C 16,7 C 97 % 1033,7 hPa 0,0 l/m 0 min 0 min 191 W/m 0,0 km/h (0 Bft) 100,00 %
13.09.2019 10:20 17,5 C 17,8 C 16,7 C 97 % 1033,7 hPa 0,0 l/m 0 min 0 min 164 W/m 3,2 km/h (1 Bft) 100,00 %
13.09.2019 10:22 17,6 C 17,8 C 16,7 C 97 % 1033,7 hPa 0,0 l/m 0 min 0 min 160 W/m 6,4 km/h (2 Bft) 95,74 %
13.09.2019 10:24 17,6 C 17,2 C 16,7 C 97 % 1033,8 hPa 0,0 l/m 0 min 0 min 154 W/m 6,4 km/h (2 Bft) 97,87 %
13.09.2019 10:26 17,6 C 17,2 C 16,7 C 97 % 1033,8 hPa 0,0 l/m 0 min 0 min 144 W/m 6,4 km/h (2 Bft) 95,74 %
13.09.2019 10:28 17,6 C 17,8 C 16,7 C 97 % 1033,9 hPa 0,0 l/m 0 min 0 min 128 W/m 6,4 km/h (2 Bft) 97,83 %
13.09.2019 10:30 17,6 C 17,8 C 16,7 C 97 % 1034,0 hPa 0,0 l/m 0 min 0 min 147 W/m 3,2 km/h (1 Bft) 95,74 %
13.09.2019 10:32 17,6 C 17,8 C 16,7 C 97 % 1034,0 hPa 0,0 l/m 0 min 0 min 133 W/m 3,2 km/h (1 Bft) 97,87 %
13.09.2019 10:34 17,7 C 17,2 C 16,7 C 97 % 1034,0 hPa 0,0 l/m 0 min 0 min 101 W/m 6,4 km/h (2 Bft) 95,74 %
13.09.2019 10:36 17,7 C 17,2 C 16,7 C 97 % 1034,1 hPa 0,0 l/m 0 min 0 min 99 W/m 6,4 km/h (2 Bft) 97,87 %
13.09.2019 10:38 17,7 C 17,2 C 16,7 C 97 % 1034,2 hPa 0,0 l/m 0 min 0 min 102 W/m 0,0 km/h (0 Bft) 97,83 %
13.09.2019 10:40 17,7 C 17,8 C 16,7 C 97 % 1034,3 hPa 0,0 l/m 0 min 0 min 143 W/m 0,0 km/h (0 Bft) 97,87 %
13.09.2019 10:42 17,7 C 17,8 C 16,7 C 97 % 1034,3 hPa 0,0 l/m 0 min 0 min 140 W/m 0,0 km/h (0 Bft) 95,74 %
13.09.2019 10:44 17,7 C 17,8 C 16,7 C 97 % 1034,3 hPa 0,0 l/m 0 min 0 min 152 W/m 6,4 km/h (2 Bft) 93,62 %
13.09.2019 10:46 17,8 C 18,3 C 17,2 C 97 % 1034,3 hPa 0,0 l/m 0 min 0 min 244 W/m 3,2 km/h (1 Bft) 93,62 %
13.09.2019 10:48 17,8 C 18,9 C 17,8 C 97 % 1034,4 hPa 0,0 l/m 2 min 0 min 296 W/m 0,0 km/h (0 Bft) 95,74 %
13.09.2019 10:50 17,9 C 18,9 C 17,8 C 97 % 1034,3 hPa 0,0 l/m 0 min 0 min 216 W/m 3,2 km/h (1 Bft) 95,65 %
13.09.2019 10:52 17,9 C 18,9 C 17,2 C 97 % 1034,4 hPa 0,0 l/m 0 min 0 min 206 W/m 3,2 km/h (1 Bft) 93,62 %
13.09.2019 10:54 18,0 C 18,9 C 17,2 C 97 % 1034,5 hPa 0,0 l/m 0 min 0 min 237 W/m 9,7 km/h (2 Bft) 95,74 %
13.09.2019 10:56 18,0 C 18,3 C 17,2 C 97 % 1034,6 hPa 0,0 l/m 0 min 0 min 200 W/m 6,4 km/h (2 Bft) 95,74 %
13.09.2019 10:58 18,0 C 18,3 C 17,2 C 97 % 1034,6 hPa 0,0 l/m 0 min 0 min 107 W/m 0,0 km/h (0 Bft) 97,87 %
13.09.2019 11:00 18,1 C 17,8 C 17,2 C 97 % 1034,6 hPa 0,0 l/m 0 min 0 min 95 W/m 3,2 km/h (1 Bft) 93,62 %
13.09.2019 11:02 18,1 C 17,8 C 17,2 C 97 % 1034,8 hPa 0,0 l/m 0 min 0 min 82 W/m 3,2 km/h (1 Bft) 93,48 %
13.09.2019 11:04 18,1 C 17,8 C 16,7 C 97 % 1034,7 hPa 0,0 l/m 0 min 0 min 82 W/m 0,0 km/h (0 Bft) 95,74 %
13.09.2019 11:06 18,1 C 17,8 C 16,7 C 96 % 1034,8 hPa 0,0 l/m 0 min 0 min 74 W/m 3,2 km/h (1 Bft) 93,62 %
13.09.2019 11:08 18,1 C 17,2 C 16,7 C 96 % 1034,8 hPa 0,0 l/m 0 min 0 min 79 W/m 3,2 km/h (1 Bft) 95,74 %
13.09.2019 11:10 18,1 C 17,2 C 16,7 C 96 % 1034,8 hPa 0,0 l/m 0 min 0 min 78 W/m 6,4 km/h (2 Bft) 95,74 %
13.09.2019 11:12 18,1 C 17,2 C 16,7 C 96 % 1034,8 hPa 0,0 l/m 0 min 0 min 102 W/m 0,0 km/h (0 Bft) 95,74 %
13.09.2019 11:14 18,1 C 17,8 C 16,7 C 96 % 1034,9 hPa 0,0 l/m 0 min 0 min 151 W/m 3,2 km/h (1 Bft) 95,65 %
13.09.2019 11:16 18,1 C 17,8 C 17,2 C 96 % 1034,9 hPa 0,0 l/m 0 min 0 min 146 W/m 3,2 km/h (1 Bft) 95,74 %
13.09.2019 11:18 18,1 C 17,8 C 17,2 C 96 % 1035,0 hPa 0,0 l/m 0 min 0 min 94 W/m 0,0 km/h (0 Bft) 97,87 %
13.09.2019 11:20 18,1 C 17,8 C 17,2 C 96 % 1034,9 hPa 0,0 l/m 0 min 0 min 77 W/m 0,0 km/h (0 Bft) 95,74 %
13.09.2019 11:22 18,1 C 17,2 C 17,2 C 96 % 1035,0 hPa 0,0 l/m 0 min 0 min 75 W/m 3,2 km/h (1 Bft) 100,00 %
13.09.2019 11:24 18,1 C 17,2 C 17,2 C 96 % 1035,0 hPa 0,0 l/m 0 min 0 min 76 W/m 3,2 km/h (1 Bft) 100,00 %
13.09.2019 11:26 18,1 C 17,2 C 17,2 C 96 % 1035,1 hPa 0,0 l/m 0 min 0 min 90 W/m 9,7 km/h (2 Bft) 100,00 %
13.09.2019 11:28 18,1 C 17,2 C 17,2 C 96 % 1035,2 hPa 0,0 l/m 0 min 0 min 77 W/m 6,4 km/h (2 Bft) 97,87 %
13.09.2019 11:30 18,1 C 17,2 C 17,2 C 95 % 1035,2 hPa 0,0 l/m 0 min 0 min 58 W/m 6,4 km/h (2 Bft) 97,87 %
13.09.2019 11:32 18,1 C 17,2 C 17,2 C 95 % 1035,3 hPa 0,0 l/m 0 min 0 min 69 W/m 3,2 km/h (1 Bft) 95,74 %
13.09.2019 11:34 18,1 C 17,2 C 17,2 C 95 % 1035,3 hPa 0,0 l/m 0 min 0 min 79 W/m 0,0 km/h (0 Bft) 100,00 %
13.09.2019 11:36 18,1 C 17,2 C 17,2 C 95 % 1035,4 hPa 0,0 l/m 0 min 0 min 86 W/m 9,7 km/h (2 Bft) 100,00 %
13.09.2019 11:38 18,1 C 17,2 C 17,2 C 95 % 1035,4 hPa 0,0 l/m 0 min 0 min 84 W/m 3,2 km/h (1 Bft) 97,87 %
13.09.2019 11:40 18,1 C 17,2 C 17,2 C 95 % 1035,5 hPa 0,0 l/m 0 min 0 min 97 W/m 6,4 km/h (2 Bft) 100,00 %
13.09.2019 11:42 18,1 C 17,8 C 17,8 C 95 % 1035,5 hPa 0,0 l/m 0 min 0 min 158 W/m 3,2 km/h (1 Bft) 100,00 %
13.09.2019 11:44 18,1 C 17,8 C 17,8 C 95 % 1035,6 hPa 0,0 l/m 0 min 0 min 159 W/m 3,2 km/h (1 Bft) 100,00 %
13.09.2019 11:46 18,2 C 18,3 C 17,8 C 95 % 1035,6 hPa 0,0 l/m 0 min 0 min 129 W/m 0,0 km/h (0 Bft) 100,00 %
13.09.2019 11:48 18,2 C 18,3 C 17,8 C 95 % 1035,7 hPa 0,0 l/m 0 min 0 min 179 W/m 3,2 km/h (1 Bft) 100,00 %
13.09.2019 11:50 18,2 C 18,9 C 18,3 C 95 % 1035,7 hPa 0,0 l/m 0 min 0 min 233 W/m 3,2 km/h (1 Bft) 100,00 %
13.09.2019 11:52 18,2 C 18,9 C 18,3 C 95 % 1035,8 hPa 0,0 l/m 0 min 0 min 226 W/m 9,7 km/h (2 Bft) 100,00 %
13.09.2019 11:54 18,3 C 18,9 C 18,3 C 95 % 1035,8 hPa 0,0 l/m 0 min 0 min 185 W/m 3,2 km/h (1 Bft) 97,87 %
13.09.2019 11:56 18,3 C 18,9 C 18,3 C 95 % 1035,8 hPa 0,0 l/m 0 min 0 min 155 W/m 3,2 km/h (1 Bft) 100,00 %
13.09.2019 11:58 18,3 C 18,9 C 18,3 C 95 % 1035,9 hPa 0,0 l/m 0 min 0 min 129 W/m 3,2 km/h (1 Bft) 100,00 %
13.09.2019 12:00 18,3 C 18,9 C 18,3 C 95 % 1035,9 hPa 0,0 l/m 0 min 0 min 111 W/m 6,4 km/h (2 Bft) 100,00 %
13.09.2019 12:02 18,4 C 18,9 C 17,8 C 95 % 1036,0 hPa 0,0 l/m 0 min 0 min 86 W/m 3,2 km/h (1 Bft) 100,00 %
13.09.2019 12:04 18,4 C 18,9 C 17,8 C 94 % 1036,0 hPa 0,0 l/m 0 min 0 min 97 W/m 3,2 km/h (1 Bft) 100,00 %
13.09.2019 12:08 18,4 C 18,9 C 18,3 C 94 % 1036,1 hPa 0,0 l/m 0 min 0 min 152 W/m 3,2 km/h (1 Bft) 98,94 %
13.09.2019 12:10 18,5 C 19,4 C 18,9 C 94 % 1036,1 hPa 0,0 l/m 0 min 0 min 232 W/m 0,0 km/h (0 Bft) 100,00 %
13.09.2019 12:12 18,5 C 20,0 C 18,9 C 94 % 1036,1 hPa 0,0 l/m 0 min 0 min 245 W/m 3,2 km/h (1 Bft) 97,83 %
13.09.2019 12:14 18,6 C 20,0 C 19,4 C 94 % 1036,2 hPa 0,0 l/m 0 min 0 min 217 W/m 0,0 km/h (0 Bft) 97,87 %
13.09.2019 12:16 18,6 C 20,6 C 19,4 C 94 % 1036,2 hPa 0,0 l/m 0 min 0 min 221 W/m 6,4 km/h (2 Bft) 100,00 %
13.09.2019 12:18 18,7 C 20,0 C 19,4 C 94 % 1036,3 hPa 0,0 l/m 0 min 0 min 234 W/m 6,4 km/h (2 Bft) 100,00 %
13.09.2019 12:20 18,7 C 20,6 C 19,4 C 94 % 1036,3 hPa 0,0 l/m 0 min 0 min 228 W/m 6,4 km/h (2 Bft) 100,00 %
13.09.2019 12:22 18,8 C 20,0 C 19,4 C 94 % 1036,4 hPa 0,0 l/m 0 min 0 min 213 W/m 6,4 km/h (2 Bft) 97,87 %
13.09.2019 12:24 18,8 C 20,0 C 18,9 C 94 % 1036,4 hPa 0,0 l/m 0 min 0 min 212 W/m 6,4 km/h (2 Bft) 95,65 %
13.09.2019 12:26 18,9 C 20,0 C 19,4 C 93 % 1036,4 hPa 0,0 l/m 0 min 0 min 213 W/m 0,0 km/h (0 Bft) 97,87 %
13.09.2019 12:28 18,9 C 20,6 C 19,4 C 93 % 1036,4 hPa 0,0 l/m 0 min 0 min 237 W/m 3,2 km/h (1 Bft) 97,87 %
13.09.2019 12:30 19,0 C 20,6 C 19,4 C 93 % 1036,4 hPa 0,0 l/m 0 min 0 min 250 W/m 3,2 km/h (1 Bft) 97,87 %
13.09.2019 12:32 19,1 C 21,1 C 20,0 C 93 % 1036,4 hPa 0,0 l/m 0 min 0 min 243 W/m 3,2 km/h (1 Bft) 97,87 %
13.09.2019 12:34 19,1 C 21,1 C 20,0 C 93 % 1036,5 hPa 0,0 l/m 0 min 0 min 229 W/m 3,2 km/h (1 Bft) 97,87 %
13.09.2019 12:36 19,1 C 21,1 C 20,0 C 93 % 1036,6 hPa 0,0 l/m 0 min 0 min 218 W/m 6,4 km/h (2 Bft) 97,83 %
13.09.2019 12:38 19,2 C 21,1 C 20,0 C 92 % 1036,6 hPa 0,0 l/m 0 min 0 min 204 W/m 3,2 km/h (1 Bft) 97,87 %
13.09.2019 12:40 19,3 C 21,1 C 20,0 C 92 % 1036,6 hPa 0,0 l/m 0 min 0 min 203 W/m 9,7 km/h (2 Bft) 97,87 %
13.09.2019 12:42 19,3 C 21,1 C 20,0 C 92 % 1036,5 hPa 0,0 l/m 0 min 0 min 238 W/m 3,2 km/h (1 Bft) 97,87 %
13.09.2019 12:44 19,4 C 21,1 C 20,6 C 91 % 1036,6 hPa 0,0 l/m 0 min 0 min 273 W/m 0,0 km/h (0 Bft) 97,87 %
13.09.2019 12:46 19,5 C 21,7 C 20,6 C 91 % 1036,6 hPa 0,0 l/m 0 min 0 min 271 W/m 3,2 km/h (1 Bft) 97,83 %
13.09.2019 12:48 19,6 C 21,7 C 20,6 C 91 % 1036,7 hPa 0,0 l/m 0 min 0 min 264 W/m 3,2 km/h (1 Bft) 97,87 %
13.09.2019 12:50 19,6 C 21,7 C 20,6 C 90 % 1036,7 hPa 0,0 l/m 0 min 0 min 242 W/m 9,7 km/h (2 Bft) 97,87 %
13.09.2019 12:52 19,7 C 21,7 C 20,6 C 90 % 1036,7 hPa 0,0 l/m 0 min 0 min 218 W/m 3,2 km/h (1 Bft) 97,87 %
13.09.2019 12:54 19,8 C 21,1 C 20,6 C 90 % 1036,8 hPa 0,0 l/m 0 min 0 min 218 W/m 0,0 km/h (0 Bft) 97,87 %
13.09.2019 12:56 19,8 C 21,1 C 20,6 C 89 % 1036,8 hPa 0,0 l/m 0 min 0 min 207 W/m 6,4 km/h (2 Bft) 97,87 %
13.09.2019 12:58 19,9 C 21,1 C 20,6 C 89 % 1036,8 hPa 0,0 l/m 0 min 0 min 213 W/m 6,4 km/h (2 Bft) 95,65 %
13.09.2019 13:00 19,9 C 21,1 C 20,6 C 89 % 1036,8 hPa 0,0 l/m 0 min 0 min 244 W/m 3,2 km/h (1 Bft) 97,87 %
13.09.2019 13:02 20,0 C 21,1 C 20,6 C 89 % 1036,9 hPa 0,0 l/m 0 min 0 min 256 W/m 3,2 km/h (1 Bft) 97,87 %
13.09.2019 13:04 20,0 C 21,7 C 20,6 C 88 % 1036,8 hPa 0,0 l/m 0 min 0 min 258 W/m 3,2 km/h (1 Bft) 93,62 %
13.09.2019 13:06 20,1 C 21,7 C 20,6 C 88 % 1036,9 hPa 0,0 l/m 0 min 0 min 272 W/m 6,4 km/h (2 Bft) 95,74 %
13.09.2019 13:08 20,2 C 21,7 C 20,6 C 88 % 1036,9 hPa 0,0 l/m 0 min 0 min 288 W/m 9,7 km/h (2 Bft) 97,87 %
13.09.2019 13:10 20,2 C 22,2 C 21,1 C 88 % 1036,9 hPa 0,0 l/m 0 min 0 min 293 W/m 6,4 km/h (2 Bft) 97,83 %
13.09.2019 13:12 20,3 C 22,2 C 21,1 C 88 % 1036,9 hPa 0,0 l/m 0 min 0 min 273 W/m 3,2 km/h (1 Bft) 97,87 %
13.09.2019 13:14 20,4 C 22,2 C 21,1 C 88 % 1036,9 hPa 0,0 l/m 0 min 0 min 245 W/m 3,2 km/h (1 Bft) 97,87 %
13.09.2019 13:16 20,4 C 22,2 C 21,1 C 87 % 1037,1 hPa 0,0 l/m 0 min 0 min 214 W/m 6,4 km/h (2 Bft) 97,87 %
13.09.2019 13:18 20,4 C 21,1 C 20,0 C 87 % 1037,1 hPa 0,0 l/m 0 min 0 min 127 W/m 12,9 km/h (3 Bft) 97,87 %
13.09.2019 13:20 20,4 C 20,0 C 19,4 C 85 % 1037,1 hPa 0,0 l/m 0 min 0 min 78 W/m 6,4 km/h (2 Bft) 95,74 %
13.09.2019 13:22 20,3 C 19,4 C 18,9 C 85 % 1037,3 hPa 0,0 l/m 0 min 0 min 57 W/m 6,4 km/h (2 Bft) 97,83 %
13.09.2019 13:24 20,3 C 18,9 C 18,9 C 84 % 1037,3 hPa 0,0 l/m 0 min 0 min 48 W/m 3,2 km/h (1 Bft) 95,74 %
13.09.2019 13:26 20,2 C 18,3 C 18,3 C 84 % 1037,4 hPa 0,0 l/m 0 min 0 min 46 W/m 3,2 km/h (1 Bft) 95,74 %
13.09.2019 13:28 20,1 C 18,3 C 17,8 C 83 % 1037,5 hPa 0,0 l/m 0 min 2 min 41 W/m 9,7 km/h (2 Bft) 95,74 %
13.09.2019 13:30 19,9 C 16,7 C 16,7 C 83 % 1037,5 hPa 0,0 l/m 0 min 2 min 46 W/m 9,7 km/h (2 Bft) 97,87 %
13.09.2019 13:32 19,8 C 16,1 C 16,1 C 84 % 1037,4 hPa 0,2 l/m 0 min 2 min 56 W/m 3,2 km/h (1 Bft) 97,87 %
13.09.2019 13:34 19,7 C 16,1 C 16,1 C 85 % 1037,5 hPa 0,0 l/m 0 min 2 min 72 W/m 3,2 km/h (1 Bft) 93,48 %
13.09.2019 13:36 19,7 C 16,1 C 16,1 C 85 % 1037,6 hPa 0,0 l/m 0 min 2 min 93 W/m 3,2 km/h (1 Bft) 91,43 %
13.09.2019 13:38 19,6 C 16,7 C 16,1 C 86 % 1037,6 hPa 0,0 l/m 0 min 2 min 102 W/m 3,2 km/h (1 Bft) 94,83 %
13.09.2019 13:40 19,5 C 16,7 C 16,7 C 86 % 1037,6 hPa 0,0 l/m 0 min 2 min 108 W/m 0,0 km/h (0 Bft) 97,87 %
13.09.2019 13:42 19,4 C 16,7 C 16,7 C 87 % 1037,6 hPa 0,0 l/m 0 min 0 min 120 W/m 6,4 km/h (2 Bft) 97,87 %
13.09.2019 13:44 19,3 C 16,7 C 16,7 C 87 % 1037,6 hPa 0,0 l/m 0 min 0 min 131 W/m 3,2 km/h (1 Bft) 95,74 %
13.09.2019 13:46 19,3 C 17,2 C 16,7 C 87 % 1037,8 hPa 0,0 l/m 0 min 0 min 161 W/m 0,0 km/h (0 Bft) 95,65 %
13.09.2019 13:48 19,2 C 17,8 C 17,2 C 88 % 1037,7 hPa 0,0 l/m 0 min 0 min 188 W/m 3,2 km/h (1 Bft) 95,74 %
13.09.2019 13:50 19,2 C 17,8 C 17,2 C 88 % 1037,8 hPa 0,0 l/m 0 min 0 min 178 W/m 3,2 km/h (1 Bft) 97,87 %
13.09.2019 13:52 19,1 C 17,8 C 17,2 C 89 % 1037,9 hPa 0,0 l/m 0 min 0 min 164 W/m 6,4 km/h (2 Bft) 93,62 %
13.09.2019 13:54 19,1 C 17,8 C 17,2 C 89 % 1037,9 hPa 0,0 l/m 0 min 0 min 154 W/m 3,2 km/h (1 Bft) 95,74 %
13.09.2019 13:56 19,1 C 17,8 C 17,2 C 89 % 1037,9 hPa 0,0 l/m 0 min 0 min 154 W/m 0,0 km/h (0 Bft) 97,83 %
13.09.2019 13:58 19,1 C 18,3 C 17,8 C 90 % 1037,9 hPa 0,0 l/m 0 min 0 min 152 W/m 0,0 km/h (0 Bft) 97,87 %
13.09.2019 14:00 19,1 C 17,8 C 17,8 C 90 % 1037,9 hPa 0,0 l/m 0 min 0 min 143 W/m 6,4 km/h (2 Bft) 97,87 %
13.09.2019 14:02 19,1 C 17,8 C 17,2 C 90 % 1037,9 hPa 0,0 l/m 0 min 0 min 138 W/m 0,0 km/h (0 Bft) 97,87 %
13.09.2019 14:04 19,0 C 17,8 C 17,2 C 90 % 1037,9 hPa 0,0 l/m 0 min 0 min 147 W/m 0,0 km/h (0 Bft) 97,87 %
13.09.2019 14:06 19,0 C 17,8 C 17,2 C 90 % 1038,0 hPa 0,0 l/m 0 min 0 min 162 W/m 3,2 km/h (1 Bft) 95,74 %
13.09.2019 14:08 18,9 C 18,3 C 17,2 C 90 % 1038,0 hPa 0,0 l/m 0 min 0 min 187 W/m 3,2 km/h (1 Bft) 97,83 %
13.09.2019 14:10 18,9 C 18,3 C 17,8 C 90 % 1038,0 hPa 0,0 l/m 0 min 0 min 214 W/m 3,2 km/h (1 Bft) 97,87 %
13.09.2019 14:12 18,9 C 18,3 C 17,8 C 90 % 1038,1 hPa 0,0 l/m 0 min 0 min 236 W/m 3,2 km/h (1 Bft) 95,74 %
13.09.2019 14:14 19,0 C 18,9 C 17,8 C 90 % 1038,1 hPa 0,0 l/m 0 min 0 min 263 W/m 0,0 km/h (0 Bft) 97,87 %
13.09.2019 14:16 19,0 C 19,4 C 18,3 C 90 % 1038,1 hPa 0,0 l/m 0 min 0 min 309 W/m 3,2 km/h (1 Bft) 97,87 %
13.09.2019 14:18 19,1 C 20,6 C 18,9 C 90 % 1038,0 hPa 0,0 l/m 2 min 0 min 329 W/m 3,2 km/h (1 Bft) 95,74 %
13.09.2019 14:20 19,1 C 20,0 C 18,3 C 91 % 1038,0 hPa 0,0 l/m 0 min 0 min 321 W/m 6,4 km/h (2 Bft) 97,83 %
13.09.2019 14:22 19,2 C 20,6 C 18,9 C 90 % 1038,0 hPa 0,0 l/m 0 min 0 min 282 W/m 6,4 km/h (2 Bft) 95,74 %
13.09.2019 14:24 19,2 C 21,1 C 18,9 C 90 % 1038,1 hPa 0,0 l/m 2 min 0 min 355 W/m 9,7 km/h (2 Bft) 95,74 %
13.09.2019 14:26 19,4 C 22,8 C 19,4 C 90 % 1038,1 hPa 0,0 l/m 2 min 0 min 703 W/m 3,2 km/h (1 Bft) 97,87 %
13.09.2019 14:28 19,5 C 22,8 C 19,4 C 90 % 1038,1 hPa 0,0 l/m 2 min 0 min 504 W/m 12,9 km/h (3 Bft) 97,87 %
13.09.2019 14:30 19,6 C 22,2 C 19,4 C 89 % 1038,1 hPa 0,0 l/m 2 min 0 min 419 W/m 3,2 km/h (1 Bft) 97,87 %
13.09.2019 14:32 19,7 C 22,8 C 19,4 C 89 % 1038,1 hPa 0,0 l/m 2 min 0 min 357 W/m 3,2 km/h (1 Bft) 97,83 %
13.09.2019 14:34 19,8 C 24,4 C 20,0 C 89 % 1038,2 hPa 0,0 l/m 2 min 0 min 457 W/m 3,2 km/h (1 Bft) 97,87 %
13.09.2019 14:36 19,9 C 24,4 C 20,0 C 89 % 1038,2 hPa 0,0 l/m 2 min 0 min 384 W/m 3,2 km/h (1 Bft) 97,87 %
13.09.2019 14:38 20,0 C 23,3 C 20,0 C 88 % 1038,2 hPa 0,0 l/m 0 min 0 min 222 W/m 6,4 km/h (2 Bft) 97,87 %
13.09.2019 14:40 20,1 C 22,2 C 20,0 C 87 % 1038,3 hPa 0,0 l/m 0 min 0 min 136 W/m 9,7 km/h (2 Bft) 97,87 %
13.09.2019 14:42 20,2 C 21,7 C 19,4 C 87 % 1038,3 hPa 0,0 l/m 0 min 0 min 157 W/m 12,9 km/h (3 Bft) 93,62 %
13.09.2019 14:44 20,2 C 21,1 C 19,4 C 86 % 1038,3 hPa 0,0 l/m 0 min 0 min 172 W/m 9,7 km/h (2 Bft) 97,83 %
13.09.2019 14:46 20,2 C 21,1 C 19,4 C 85 % 1038,4 hPa 0,0 l/m 0 min 0 min 199 W/m 9,7 km/h (2 Bft) 97,87 %
13.09.2019 14:48 20,2 C 21,1 C 20,0 C 84 % 1038,4 hPa 0,0 l/m 0 min 0 min 262 W/m 6,4 km/h (2 Bft) 100,00 %
13.09.2019 14:50 20,2 C 21,7 C 20,0 C 84 % 1038,4 hPa 0,0 l/m 0 min 0 min 292 W/m 6,4 km/h (2 Bft) 100,00 %
13.09.2019 14:52 20,3 C 22,8 C 20,0 C 85 % 1038,3 hPa 0,0 l/m 2 min 0 min 319 W/m 3,2 km/h (1 Bft) 100,00 %
13.09.2019 14:54 20,3 C 23,3 C 20,6 C 85 % 1038,3 hPa 0,0 l/m 2 min 0 min 449 W/m 3,2 km/h (1 Bft) 100,00 %
13.09.2019 14:56 20,4 C 23,9 C 20,6 C 84 % 1038,3 hPa 0,0 l/m 2 min 0 min 457 W/m 3,2 km/h (1 Bft) 97,83 %
13.09.2019 14:58 20,5 C 24,4 C 20,6 C 84 % 1038,3 hPa 0,0 l/m 2 min 0 min 358 W/m 3,2 km/h (1 Bft) 100,00 %
13.09.2019 15:00 20,6 C 25,0 C 21,1 C 83 % 1038,3 hPa 0,0 l/m 2 min 0 min 460 W/m 16,1 km/h (3 Bft) 100,00 %
13.09.2019 15:02 20,7 C 26,1 C 21,1 C 82 % 1038,2 hPa 0,0 l/m 2 min 0 min 568 W/m 6,4 km/h (2 Bft) 100,00 %
13.09.2019 15:04 20,9 C 27,2 C 21,7 C 82 % 1038,3 hPa 0,0 l/m 2 min 0 min 659 W/m 9,7 km/h (2 Bft) 97,87 %
13.09.2019 15:06 21,1 C 27,2 C 22,2 C 81 % 1038,2 hPa 0,0 l/m 2 min 0 min 808 W/m 19,3 km/h (3 Bft) 100,00 %
13.09.2019 15:08 21,3 C 25,6 C 21,7 C 80 % 1038,3 hPa 0,0 l/m 2 min 0 min 536 W/m 6,4 km/h (2 Bft) 100,00 %
13.09.2019 15:10 21,4 C 25,6 C 21,1 C 79 % 1038,3 hPa 0,0 l/m 0 min 0 min 237 W/m 3,2 km/h (1 Bft) 100,00 %
13.09.2019 15:12 21,4 C 25,0 C 21,1 C 78 % 1038,4 hPa 0,0 l/m 0 min 0 min 233 W/m 3,2 km/h (1 Bft) 97,87 %
13.09.2019 15:14 21,5 C 23,3 C 20,6 C 78 % 1038,4 hPa 0,0 l/m 0 min 0 min 209 W/m 6,4 km/h (2 Bft) 100,00 %
13.09.2019 15:16 21,5 C 23,3 C 20,6 C 77 % 1038,4 hPa 0,0 l/m 0 min 0 min 209 W/m 12,9 km/h (3 Bft) 100,00 %
13.09.2019 15:18 21,5 C 22,8 C 20,6 C 76 % 1038,4 hPa 0,0 l/m 0 min 0 min 180 W/m 0,0 km/h (0 Bft) 100,00 %
13.09.2019 15:20 21,4 C 22,8 C 20,0 C 76 % 1038,4 hPa 0,0 l/m 0 min 0 min 185 W/m 9,7 km/h (2 Bft) 97,87 %
13.09.2019 15:22 21,5 C 22,8 C 20,0 C 76 % 1038,4 hPa 0,0 l/m 0 min 0 min 206 W/m 0,0 km/h (0 Bft) 97,87 %
13.09.2019 15:24 21,4 C 23,9 C 20,0 C 76 % 1038,5 hPa 0,0 l/m 0 min 0 min 192 W/m 0,0 km/h (0 Bft) 95,74 %
13.09.2019 15:26 21,4 C 25,6 C 20,0 C 76 % 1038,5 hPa 0,0 l/m 0 min 0 min 245 W/m 6,4 km/h (2 Bft) 97,87 %
13.09.2019 15:28 21,6 C 26,7 C 20,6 C 76 % 1038,6 hPa 0,0 l/m 2 min 0 min 678 W/m 3,2 km/h (1 Bft) 97,87 %
13.09.2019 15:30 21,7 C 27,8 C 21,1 C 75 % 1038,5 hPa 0,0 l/m 2 min 0 min 705 W/m 9,7 km/h (2 Bft) 97,83 %
13.09.2019 15:32 21,8 C 28,3 C 21,7 C 75 % 1038,6 hPa 0,0 l/m 2 min 0 min 745 W/m 6,4 km/h (2 Bft) 95,74 %
13.09.2019 15:34 21,9 C 28,9 C 21,7 C 73 % 1038,5 hPa 0,0 l/m 2 min 0 min 709 W/m 3,2 km/h (1 Bft) 97,87 %
13.09.2019 15:36 22,0 C 27,2 C 21,7 C 73 % 1038,6 hPa 0,0 l/m 2 min 0 min 543 W/m 3,2 km/h (1 Bft) 97,87 %
13.09.2019 15:38 22,1 C 26,1 C 21,7 C 72 % 1038,6 hPa 0,0 l/m 0 min 0 min 275 W/m 6,4 km/h (2 Bft) 97,87 %
13.09.2019 15:40 22,2 C 26,1 C 21,7 C 73 % 1038,6 hPa 0,0 l/m 2 min 0 min 409 W/m 6,4 km/h (2 Bft) 93,62 %
13.09.2019 15:42 22,2 C 25,6 C 21,7 C 72 % 1038,6 hPa 0,0 l/m 2 min 0 min 563 W/m 9,7 km/h (2 Bft) 95,65 %
13.09.2019 15:44 22,2 C 25,6 C 21,7 C 71 % 1038,6 hPa 0,0 l/m 2 min 0 min 362 W/m 6,4 km/h (2 Bft) 95,74 %
13.09.2019 15:46 22,3 C 25,0 C 21,7 C 71 % 1038,6 hPa 0,0 l/m 2 min 0 min 553 W/m 3,2 km/h (1 Bft) 95,74 %
13.09.2019 15:48 22,3 C 24,4 C 21,7 C 72 % 1038,5 hPa 0,0 l/m 2 min 0 min 297 W/m 3,2 km/h (1 Bft) 91,49 %
13.09.2019 15:50 22,3 C 24,4 C 21,7 C 71 % 1038,5 hPa 0,0 l/m 2 min 0 min 313 W/m 3,2 km/h (1 Bft) 95,74 %
13.09.2019 15:52 22,4 C 26,7 C 22,2 C 73 % 1038,5 hPa 0,0 l/m 2 min 0 min 472 W/m 3,2 km/h (1 Bft) 95,74 %
13.09.2019 15:54 22,4 C 26,1 C 22,8 C 71 % 1038,5 hPa 0,0 l/m 2 min 0 min 634 W/m 12,9 km/h (3 Bft) 95,65 %
13.09.2019 15:56 22,4 C 24,4 C 22,2 C 70 % 1038,5 hPa 0,0 l/m 2 min 0 min 314 W/m 12,9 km/h (3 Bft) 95,74 %
13.09.2019 15:58 22,4 C 23,9 C 21,7 C 70 % 1038,5 hPa 0,0 l/m 0 min 0 min 220 W/m 6,4 km/h (2 Bft) 93,62 %
13.09.2019 16:00 22,4 C 23,3 C 21,7 C 69 % 1038,5 hPa 0,0 l/m 0 min 0 min 232 W/m 9,7 km/h (2 Bft) 95,74 %
13.09.2019 16:02 22,4 C 23,3 C 21,7 C 70 % 1038,5 hPa 0,0 l/m 0 min 0 min 233 W/m 3,2 km/h (1 Bft) 95,74 %
13.09.2019 16:04 22,4 C 22,8 C 21,1 C 70 % 1038,5 hPa 0,0 l/m 0 min 0 min 199 W/m 9,7 km/h (2 Bft) 95,74 %
13.09.2019 16:06 22,3 C 22,8 C 21,1 C 70 % 1038,5 hPa 0,0 l/m 0 min 0 min 181 W/m 6,4 km/h (2 Bft) 93,48 %
13.09.2019 16:08 22,3 C 22,8 C 21,1 C 70 % 1038,5 hPa 0,0 l/m 0 min 0 min 182 W/m 3,2 km/h (1 Bft) 95,74 %
13.09.2019 16:10 22,2 C 22,2 C 21,1 C 70 % 1038,5 hPa 0,0 l/m 0 min 0 min 193 W/m 3,2 km/h (1 Bft) 95,74 %
13.09.2019 16:12 22,2 C 22,2 C 21,1 C 71 % 1038,5 hPa 0,0 l/m 0 min 0 min 184 W/m 9,7 km/h (2 Bft) 95,74 %
13.09.2019 16:14 22,2 C 22,2 C 20,6 C 71 % 1038,4 hPa 0,0 l/m 0 min 0 min 187 W/m 3,2 km/h (1 Bft) 95,74 %
13.09.2019 16:16 22,1 C 22,2 C 20,6 C 71 % 1038,4 hPa 0,0 l/m 0 min 0 min 200 W/m 3,2 km/h (1 Bft) 97,87 %
13.09.2019 16:18 22,0 C 22,2 C 20,6 C 71 % 1038,4 hPa 0,0 l/m 0 min 0 min 199 W/m 3,2 km/h (1 Bft) 97,83 %
13.09.2019 16:20 22,0 C 23,3 C 21,1 C 72 % 1038,4 hPa 0,0 l/m 0 min 0 min 200 W/m 0,0 km/h (0 Bft) 97,87 %
13.09.2019 16:22 21,9 C 22,8 C 20,6 C 72 % 1038,4 hPa 0,0 l/m 0 min 0 min 178 W/m 3,2 km/h (1 Bft) 100,00 %
13.09.2019 16:24 21,9 C 22,8 C 20,6 C 71 % 1038,3 hPa 0,0 l/m 0 min 0 min 215 W/m 3,2 km/h (1 Bft) 97,87 %
13.09.2019 16:26 21,9 C 24,4 C 21,1 C 71 % 1038,3 hPa 0,0 l/m 2 min 0 min 423 W/m 3,2 km/h (1 Bft) 97,87 %
13.09.2019 16:28 21,9 C 25,0 C 21,1 C 72 % 1038,3 hPa 0,0 l/m 2 min 0 min 606 W/m 3,2 km/h (1 Bft) 100,00 %
13.09.2019 16:30 21,9 C 23,9 C 21,1 C 71 % 1038,4 hPa 0,0 l/m 0 min 0 min 208 W/m 3,2 km/h (1 Bft) 97,87 %
13.09.2019 16:32 21,9 C 22,8 C 21,1 C 71 % 1038,3 hPa 0,0 l/m 0 min 0 min 165 W/m 3,2 km/h (1 Bft) 97,87 %
13.09.2019 16:34 21,9 C 23,3 C 21,1 C 71 % 1038,4 hPa 0,0 l/m 0 min 0 min 179 W/m 0,0 km/h (0 Bft) 100,00 %
13.09.2019 16:36 21,9 C 23,3 C 21,1 C 71 % 1038,4 hPa 0,0 l/m 0 min 0 min 179 W/m 3,2 km/h (1 Bft) 100,00 %
13.09.2019 16:38 21,9 C 25,0 C 21,1 C 71 % 1038,4 hPa 0,0 l/m 2 min 0 min 421 W/m 6,4 km/h (2 Bft) 100,00 %
13.09.2019 16:40 21,9 C 25,0 C 21,7 C 70 % 1038,4 hPa 0,0 l/m 2 min 0 min 540 W/m 12,9 km/h (3 Bft) 100,00 %
13.09.2019 16:42 22,0 C 24,4 C 21,7 C 71 % 1038,4 hPa 0,0 l/m 2 min 0 min 232 W/m 3,2 km/h (1 Bft) 100,00 %
13.09.2019 16:44 22,1 C 25,0 C 21,7 C 71 % 1038,4 hPa 0,0 l/m 2 min 0 min 463 W/m 16,1 km/h (3 Bft) 100,00 %
13.09.2019 16:46 22,1 C 25,6 C 22,2 C 69 % 1038,4 hPa 0,0 l/m 2 min 0 min 560 W/m 9,7 km/h (2 Bft) 97,87 %
13.09.2019 16:48 22,2 C 26,7 C 22,2 C 70 % 1038,4 hPa 0,0 l/m 2 min 0 min 536 W/m 3,2 km/h (1 Bft) 100,00 %
13.09.2019 16:50 22,2 C 26,1 C 22,2 C 70 % 1038,5 hPa 0,0 l/m 2 min 0 min 451 W/m 9,7 km/h (2 Bft) 97,87 %
13.09.2019 16:52 22,3 C 25,0 C 22,8 C 68 % 1038,5 hPa 0,0 l/m 2 min 0 min 262 W/m 6,4 km/h (2 Bft) 97,83 %
13.09.2019 16:54 22,3 C 25,6 C 23,3 C 69 % 1038,6 hPa 0,0 l/m 2 min 0 min 412 W/m 9,7 km/h (2 Bft) 100,00 %
13.09.2019 16:56 22,3 C 24,4 C 22,8 C 68 % 1038,6 hPa 0,0 l/m 2 min 0 min 353 W/m 3,2 km/h (1 Bft) 100,00 %
13.09.2019 16:58 22,3 C 23,3 C 21,7 C 67 % 1038,6 hPa 0,0 l/m 0 min 0 min 123 W/m 9,7 km/h (2 Bft) 100,00 %
13.09.2019 17:00 22,3 C 22,2 C 21,1 C 67 % 1038,6 hPa 0,0 l/m 0 min 0 min 96 W/m 0,0 km/h (0 Bft) 97,87 %
13.09.2019 17:02 22,3 C 21,7 C 20,6 C 68 % 1038,7 hPa 0,0 l/m 0 min 0 min 87 W/m 0,0 km/h (0 Bft) 97,87 %
13.09.2019 17:04 22,2 C 21,1 C 20,0 C 68 % 1038,6 hPa 0,0 l/m 0 min 0 min 93 W/m 0,0 km/h (0 Bft) 100,00 %
13.09.2019 17:06 22,2 C 21,1 C 20,0 C 68 % 1038,6 hPa 0,0 l/m 0 min 0 min 110 W/m 3,2 km/h (1 Bft) 100,00 %
13.09.2019 17:08 22,1 C 21,1 C 20,0 C 67 % 1038,6 hPa 0,0 l/m 0 min 0 min 112 W/m 0,0 km/h (0 Bft) 100,00 %
13.09.2019 17:10 22,1 C 21,1 C 20,0 C 68 % 1038,6 hPa 0,0 l/m 0 min 0 min 119 W/m 6,4 km/h (2 Bft) 95,74 %
13.09.2019 17:12 21,9 C 21,1 C 20,0 C 68 % 1038,6 hPa 0,0 l/m 0 min 0 min 120 W/m 6,4 km/h (2 Bft) 100,00 %
13.09.2019 17:15 21,8 C 21,1 C 20,0 C 69 % 1038,6 hPa 0,0 l/m 0 min 0 min 133 W/m 6,4 km/h (2 Bft) 100,00 %
13.09.2019 17:20 21,7 C 22,8 C 20,6 C 70 % 1038,7 hPa 0,0 l/m 0 min 0 min 186 W/m 0,0 km/h (0 Bft) 96,00 %
13.09.2019 17:22 21,7 C 22,2 C 20,6 C 69 % 1038,7 hPa 0,0 l/m 0 min 0 min 164 W/m 6,4 km/h (2 Bft) 97,87 %
13.09.2019 17:24 21,6 C 21,7 C 20,6 C 69 % 1038,6 hPa 0,0 l/m 0 min 0 min 159 W/m 3,2 km/h (1 Bft) 95,74 %
13.09.2019 17:26 21,6 C 21,7 C 20,6 C 69 % 1038,7 hPa 0,0 l/m 0 min 0 min 159 W/m 9,7 km/h (2 Bft) 97,83 %
13.09.2019 17:28 21,5 C 21,1 C 20,6 C 69 % 1038,6 hPa 0,0 l/m 0 min 0 min 165 W/m 9,7 km/h (2 Bft) 97,87 %
13.09.2019 17:30 21,4 C 21,1 C 20,6 C 68 % 1038,6 hPa 0,0 l/m 0 min 0 min 161 W/m 6,4 km/h (2 Bft) 97,87 %
13.09.2019 17:32 21,4 C 21,7 C 20,6 C 69 % 1038,6 hPa 0,0 l/m 0 min 0 min 164 W/m 3,2 km/h (1 Bft) 95,74 %
13.09.2019 17:34 21,4 C 21,7 C 20,6 C 70 % 1038,6 hPa 0,0 l/m 0 min 0 min 160 W/m 3,2 km/h (1 Bft) 97,87 %
13.09.2019 17:36 21,4 C 21,1 C 20,0 C 69 % 1038,6 hPa 0,0 l/m 0 min 0 min 155 W/m 9,7 km/h (2 Bft) 97,14 %
13.09.2019 17:38 21,3 C 21,7 C 20,0 C 69 % 1038,6 hPa 0,0 l/m 0 min 0 min 152 W/m 3,2 km/h (1 Bft) 94,74 %
13.09.2019 17:40 21,3 C 21,7 C 20,6 C 70 % 1038,7 hPa 0,0 l/m 2 min 0 min 178 W/m 6,4 km/h (2 Bft) 97,87 %
13.09.2019 17:42 21,3 C 21,7 C 20,6 C 69 % 1038,6 hPa 0,0 l/m 2 min 0 min 174 W/m 6,4 km/h (2 Bft) 95,74 %
13.09.2019 17:44 21,3 C 21,7 C 20,6 C 69 % 1038,6 hPa 0,0 l/m 2 min 0 min 188 W/m 3,2 km/h (1 Bft) 97,87 %
13.09.2019 17:46 21,3 C 22,2 C 20,6 C 69 % 1038,6 hPa 0,0 l/m 2 min 0 min 186 W/m 0,0 km/h (0 Bft) 95,74 %
13.09.2019 17:48 21,3 C 22,2 C 20,6 C 69 % 1038,6 hPa 0,0 l/m 2 min 0 min 195 W/m 3,2 km/h (1 Bft) 97,87 %
13.09.2019 17:50 21,3 C 23,3 C 20,6 C 70 % 1038,6 hPa 0,0 l/m 2 min 0 min 294 W/m 0,0 km/h (0 Bft) 97,83 %
13.09.2019 17:52 21,3 C 23,3 C 20,6 C 69 % 1038,6 hPa 0,0 l/m 2 min 0 min 330 W/m 12,9 km/h (3 Bft) 95,74 %
13.09.2019 17:54 21,3 C 22,8 C 20,6 C 69 % 1038,6 hPa 0,0 l/m 2 min 0 min 322 W/m 0,0 km/h (0 Bft) 97,87 %
13.09.2019 17:56 21,3 C 22,2 C 20,0 C 69 % 1038,6 hPa 0,0 l/m 2 min 0 min 310 W/m 9,7 km/h (2 Bft) 97,87 %
13.09.2019 17:58 21,2 C 21,7 C 20,0 C 68 % 1038,6 hPa 0,0 l/m 2 min 0 min 190 W/m 6,4 km/h (2 Bft) 97,87 %
13.09.2019 18:00 21,2 C 21,7 C 20,0 C 69 % 1038,7 hPa 0,0 l/m 0 min 0 min 128 W/m 9,7 km/h (2 Bft) 97,87 %
13.09.2019 18:02 21,2 C 21,1 C 20,0 C 68 % 1038,7 hPa 0,0 l/m 0 min 0 min 121 W/m 6,4 km/h (2 Bft) 97,83 %
13.09.2019 18:04 21,2 C 20,6 C 19,4 C 68 % 1038,7 hPa 0,0 l/m 0 min 0 min 104 W/m 16,1 km/h (3 Bft) 97,87 %
13.09.2019 18:08 21,1 C 20,6 C 19,4 C 67 % 1038,6 hPa 0,0 l/m 0 min 0 min 107 W/m 6,4 km/h (2 Bft) 97,87 %
13.09.2019 18:10 21,1 C 20,6 C 19,4 C 67 % 1038,6 hPa 0,0 l/m 0 min 0 min 119 W/m 0,0 km/h (0 Bft) 97,87 %
13.09.2019 18:12 21,0 C 20,6 C 19,4 C 68 % 1038,7 hPa 0,0 l/m 0 min 0 min 120 W/m 3,2 km/h (1 Bft) 97,87 %
13.09.2019 18:14 21,0 C 20,6 C 19,4 C 68 % 1038,7 hPa 0,0 l/m 0 min 0 min 118 W/m 9,7 km/h (2 Bft) 97,83 %
13.09.2019 18:16 21,0 C 20,6 C 19,4 C 68 % 1038,7 hPa 0,0 l/m 0 min 0 min 114 W/m 3,2 km/h (1 Bft) 95,74 %
13.09.2019 18:18 21,0 C 20,6 C 19,4 C 68 % 1038,6 hPa 0,0 l/m 0 min 0 min 104 W/m 9,7 km/h (2 Bft) 95,74 %
13.09.2019 18:20 20,9 C 20,6 C 19,4 C 67 % 1038,7 hPa 0,0 l/m 0 min 0 min 98 W/m 12,9 km/h (3 Bft) 97,87 %
13.09.2019 18:22 20,9 C 20,0 C 19,4 C 67 % 1038,7 hPa 0,0 l/m 0 min 0 min 97 W/m 3,2 km/h (1 Bft) 97,87 %
13.09.2019 18:24 20,8 C 20,0 C 19,4 C 67 % 1038,7 hPa 0,0 l/m 0 min 0 min 97 W/m 6,4 km/h (2 Bft) 93,48 %
13.09.2019 18:26 20,8 C 20,0 C 19,4 C 67 % 1038,7 hPa 0,0 l/m 0 min 0 min 101 W/m 3,2 km/h (1 Bft) 95,74 %
13.09.2019 18:28 20,7 C 20,6 C 19,4 C 66 % 1038,7 hPa 0,0 l/m 0 min 0 min 106 W/m 0,0 km/h (0 Bft) 93,62 %
13.09.2019 18:30 20,7 C 20,6 C 19,4 C 67 % 1038,7 hPa 0,0 l/m 0 min 0 min 102 W/m 3,2 km/h (1 Bft) 95,74 %
13.09.2019 18:32 20,7 C 20,6 C 19,4 C 66 % 1038,7 hPa 0,0 l/m 0 min 0 min 100 W/m 0,0 km/h (0 Bft) 95,74 %
13.09.2019 18:34 20,7 C 20,0 C 19,4 C 67 % 1038,7 hPa 0,0 l/m 0 min 0 min 90 W/m 3,2 km/h (1 Bft) 93,62 %
13.09.2019 18:36 20,7 C 20,0 C 19,4 C 67 % 1038,7 hPa 0,0 l/m 0 min 0 min 77 W/m 0,0 km/h (0 Bft) 95,65 %
13.09.2019 18:38 20,6 C 20,0 C 19,4 C 67 % 1038,7 hPa 0,0 l/m 0 min 0 min 66 W/m 6,4 km/h (2 Bft) 95,74 %
13.09.2019 18:40 20,6 C 20,0 C 18,9 C 67 % 1038,7 hPa 0,0 l/m 0 min 0 min 62 W/m 6,4 km/h (2 Bft) 94,44 %
13.09.2019 18:42 20,6 C 20,0 C 18,9 C 67 % 1038,7 hPa 0,0 l/m 0 min 0 min 54 W/m 12,9 km/h (3 Bft) 95,74 %
13.09.2019 18:44 20,6 C 19,4 C 18,9 C 67 % 1038,6 hPa 0,0 l/m 0 min 0 min 44 W/m 6,4 km/h (2 Bft) 95,74 %
13.09.2019 18:46 20,5 C 19,4 C 18,9 C 67 % 1038,6 hPa 0,0 l/m 0 min 0 min 39 W/m 3,2 km/h (1 Bft) 95,74 %
13.09.2019 18:48 20,5 C 19,4 C 18,9 C 67 % 1038,6 hPa 0,0 l/m 0 min 0 min 39 W/m 3,2 km/h (1 Bft) 95,74 %
13.09.2019 18:50 20,4 C 19,4 C 18,9 C 67 % 1038,5 hPa 0,0 l/m 0 min 0 min 43 W/m 0,0 km/h (0 Bft) 95,74 %
13.09.2019 18:52 20,4 C 19,4 C 18,3 C 67 % 1038,5 hPa 0,0 l/m 0 min 0 min 48 W/m 6,4 km/h (2 Bft) 95,65 %
13.09.2019 18:54 20,4 C 19,4 C 18,3 C 68 % 1038,4 hPa 0,0 l/m 0 min 0 min 54 W/m 0,0 km/h (0 Bft) 94,55 %
13.09.2019 18:56 20,4 C 19,4 C 18,3 C 68 % 1038,5 hPa 0,0 l/m 0 min 0 min 56 W/m 0,0 km/h (0 Bft) 95,74 %
13.09.2019 18:58 20,4 C 19,4 C 18,3 C 68 % 1038,5 hPa 0,0 l/m 0 min 0 min 56 W/m 0,0 km/h (0 Bft) 97,87 %
13.09.2019 19:00 20,3 C 19,4 C 18,3 C 69 % 1038,4 hPa 0,0 l/m 0 min 0 min 56 W/m 0,0 km/h (0 Bft) 97,83 %
13.09.2019 19:02 20,3 C 18,9 C 18,3 C 68 % 1032,9 hPa 0,0 l/m 0 min 0 min 52 W/m 0,0 km/h (0 Bft) 97,50 %
13.09.2019 19:04 20,3 C 18,9 C 18,3 C 68 % 1032,9 hPa 0,0 l/m 0 min 0 min 51 W/m 3,2 km/h (1 Bft) 97,83 %
13.09.2019 19:06 20,2 C 18,9 C 18,3 C 68 % 1032,9 hPa 0,0 l/m 0 min 0 min 52 W/m 0,0 km/h (0 Bft) 93,62 %
13.09.2019 19:08 20,2 C 18,9 C 18,3 C 67 % 1032,9 hPa 0,0 l/m 0 min 0 min 47 W/m 12,9 km/h (3 Bft) 95,74 %
13.09.2019 19:10 20,2 C 18,9 C 17,8 C 67 % 1032,9 hPa 0,0 l/m 0 min 0 min 42 W/m 0,0 km/h (0 Bft) 97,87 %
13.09.2019 19:12 20,1 C 18,9 C 17,8 C 67 % 1033,0 hPa 0,0 l/m 0 min 0 min 40 W/m 0,0 km/h (0 Bft) 97,87 %
13.09.2019 19:14 20,1 C 18,9 C 17,8 C 67 % 1032,9 hPa 0,0 l/m 0 min 0 min 40 W/m 6,4 km/h (2 Bft) 97,87 %
13.09.2019 19:16 20,1 C 18,9 C 17,8 C 67 % 1033,0 hPa 0,0 l/m 0 min 0 min 37 W/m 6,4 km/h (2 Bft) 97,83 %
13.09.2019 19:18 20,0 C 18,3 C 17,8 C 68 % 1033,0 hPa 0,0 l/m 0 min 0 min 31 W/m 0,0 km/h (0 Bft) 100,00 %
13.09.2019 19:20 20,0 C 18,3 C 17,2 C 68 % 1032,9 hPa 0,0 l/m 0 min 0 min 25 W/m 0,0 km/h (0 Bft) 100,00 %
13.09.2019 19:22 19,9 C 18,3 C 17,2 C 68 % 1032,9 hPa 0,0 l/m 0 min 0 min 22 W/m 3,2 km/h (1 Bft) 100,00 %
13.09.2019 19:24 19,9 C 18,3 C 17,2 C 69 % 1032,9 hPa 0,0 l/m 0 min 0 min 19 W/m 0,0 km/h (0 Bft) 100,00 %
13.09.2019 19:26 19,9 C 17,8 C 16,7 C 69 % 1032,9 hPa 0,0 l/m 0 min 0 min 18 W/m 0,0 km/h (0 Bft) 100,00 %
13.09.2019 19:28 19,8 C 17,8 C 16,7 C 69 % 1032,8 hPa 0,0 l/m 0 min 0 min 15 W/m 0,0 km/h (0 Bft) 100,00 %
13.09.2019 19:30 19,8 C 17,8 C 16,7 C 70 % 1032,8 hPa 0,0 l/m 0 min 0 min 12 W/m 3,2 km/h (1 Bft) 100,00 %
13.09.2019 19:32 19,8 C 17,2 C 16,7 C 69 % 1032,8 hPa 0,0 l/m 0 min 0 min 11 W/m 0,0 km/h (0 Bft) 100,00 %
13.09.2019 19:34 19,7 C 17,2 C 16,7 C 70 % 1032,7 hPa 0,0 l/m 0 min 0 min 10 W/m 0,0 km/h (0 Bft) 97,87 %
13.09.2019 19:36 19,7 C 17,2 C 16,1 C 70 % 1032,8 hPa 0,0 l/m 0 min 0 min 9 W/m 3,2 km/h (1 Bft) 100,00 %
13.09.2019 19:38 19,6 C 17,2 C 16,1 C 70 % 1032,8 hPa 0,0 l/m 0 min 0 min 9 W/m 0,0 km/h (0 Bft) 97,83 %
13.09.2019 19:40 19,6 C 17,2 C 16,1 C 70 % 1032,7 hPa 0,0 l/m 0 min 0 min 8 W/m 0,0 km/h (0 Bft) 100,00 %
13.09.2019 19:42 19,5 C 17,2 C 16,1 C 70 % 1032,7 hPa 0,0 l/m 0 min 0 min 7 W/m 0,0 km/h (0 Bft) 100,00 %
13.09.2019 19:44 19,4 C 17,2 C 16,1 C 70 % 1032,7 hPa 0,0 l/m 0 min 0 min 7 W/m 0,0 km/h (0 Bft) 100,00 %
13.09.2019 19:46 19,4 C 17,2 C 16,1 C 70 % 1032,7 hPa 0,0 l/m 0 min 0 min 6 W/m 0,0 km/h (0 Bft) 100,00 %
13.09.2019 19:48 19,3 C 17,2 C 16,1 C 70 % 1032,7 hPa 0,0 l/m 0 min 0 min 5 W/m 0,0 km/h (0 Bft) 100,00 %
13.09.2019 19:50 19,3 C 16,7 C 16,1 C 70 % 1032,6 hPa 0,0 l/m 0 min 0 min 5 W/m 0,0 km/h (0 Bft) 100,00 %
13.09.2019 19:52 19,2 C 16,7 C 16,1 C 71 % 1032,6 hPa 0,0 l/m 0 min 0 min 1 W/m 0,0 km/h (0 Bft) 100,00 %
13.09.2019 19:54 19,2 C 16,7 C 16,1 C 71 % 1032,6 hPa 0,0 l/m 0 min 0 min 0 W/m 0,0 km/h (0 Bft) 100,00 %
13.09.2019 19:56 19,2 C 16,7 C 16,1 C 71 % 1032,5 hPa 0,0 l/m 0 min 0 min 0 W/m 0,0 km/h (0 Bft) 97,87 %
13.09.2019 19:58 19,1 C 16,7 C 16,1 C 72 % 1032,4 hPa 0,0 l/m 0 min 0 min 0 W/m 0,0 km/h (0 Bft) 97,87 %
13.09.2019 20:00 19,1 C 16,7 C 16,1 C 72 % 1032,4 hPa 0,0 l/m 0 min 0 min 0 W/m 0,0 km/h (0 Bft) 100,00 %
13.09.2019 20:02 19,0 C 16,7 C 16,1 C 72 % 1032,4 hPa 0,0 l/m 0 min 0 min 0 W/m 0,0 km/h (0 Bft) 100,00 %
13.09.2019 20:04 18,9 C 16,7 C 16,1 C 72 % 1032,4 hPa 0,0 l/m 0 min 0 min 0 W/m 0,0 km/h (0 Bft) 96,30 %
13.09.2019 20:06 18,9 C 16,7 C 16,1 C 72 % 1032,3 hPa 0,0 l/m 0 min 0 min 0 W/m 0,0 km/h (0 Bft) 98,00 %
13.09.2019 20:08 18,8 C 16,7 C 16,1 C 72 % 1032,4 hPa 0,0 l/m 0 min 0 min 0 W/m 0,0 km/h (0 Bft) 100,00 %
13.09.2019 20:10 18,8 C 16,7 C 16,1 C 72 % 1032,4 hPa 0,0 l/m 0 min 0 min 0 W/m 0,0 km/h (0 Bft) 100,00 %
13.09.2019 20:12 18,7 C 16,7 C 16,1 C 73 % 1032,3 hPa 0,0 l/m 0 min 0 min 0 W/m 0,0 km/h (0 Bft) 97,83 %
13.09.2019 20:14 18,7 C 16,7 C 16,1 C 73 % 1032,4 hPa 0,0 l/m 0 min 0 min 0 W/m 0,0 km/h (0 Bft) 98,15 %
13.09.2019 20:16 18,7 C 16,7 C 16,1 C 73 % 1032,4 hPa 0,0 l/m 0 min 0 min 0 W/m 0,0 km/h (0 Bft) 98,00 %
13.09.2019 20:18 18,6 C 16,7 C 16,1 C 73 % 1032,3 hPa 0,0 l/m 0 min 0 min 0 W/m 0,0 km/h (0 Bft) 97,96 %
13.09.2019 20:20 18,6 C 16,7 C 16,1 C 73 % 1032,3 hPa 0,0 l/m 0 min 0 min 0 W/m 0,0 km/h (0 Bft) 97,14 %
13.09.2019 20:22 18,6 C 16,7 C 16,1 C 73 % 1032,3 hPa 0,0 l/m 0 min 0 min 0 W/m 0,0 km/h (0 Bft) 97,87 %
13.09.2019 20:24 18,5 C 16,7 C 16,1 C 73 % 1032,3 hPa 0,0 l/m 0 min 0 min 0 W/m 0,0 km/h (0 Bft) 98,11 %
13.09.2019 20:26 18,4 C 16,7 C 16,1 C 73 % 1032,3 hPa 0,0 l/m 0 min 0 min 0 W/m 3,2 km/h (1 Bft) 98,00 %
13.09.2019 20:28 18,4 C 16,7 C 16,1 C 73 % 1032,2 hPa 0,0 l/m 0 min 0 min 0 W/m 0,0 km/h (0 Bft) 95,92 %
13.09.2019 20:30 18,4 C 16,7 C 16,1 C 74 % 1032,2 hPa 0,0 l/m 0 min 0 min 0 W/m 0,0 km/h (0 Bft) 97,14 %
13.09.2019 20:32 18,3 C 16,7 C 16,1 C 74 % 1032,2 hPa 0,0 l/m 0 min 0 min 0 W/m 0,0 km/h (0 Bft) 97,87 %
13.09.2019 20:34 18,3 C 16,7 C 16,1 C 74 % 1032,1 hPa 0,0 l/m 0 min 0 min 0 W/m 0,0 km/h (0 Bft) 95,74 %
13.09.2019 20:36 18,2 C 16,7 C 16,1 C 74 % 1032,2 hPa 0,0 l/m 0 min 0 min 0 W/m 0,0 km/h (0 Bft) 97,83 %
13.09.2019 20:38 18,2 C 16,1 C 15,6 C 74 % 1032,1 hPa 0,0 l/m 0 min 0 min 0 W/m 0,0 km/h (0 Bft) 97,87 %
13.09.2019 20:40 18,2 C 16,1 C 15,6 C 74 % 1032,0 hPa 0,0 l/m 0 min 0 min 0 W/m 3,2 km/h (1 Bft) 97,87 %
13.09.2019 20:42 18,1 C 16,1 C 15,6 C 74 % 1032,1 hPa 0,0 l/m 0 min 0 min 0 W/m 0,0 km/h (0 Bft) 97,87 %
13.09.2019 20:44 18,1 C 16,1 C 15,6 C 74 % 1032,1 hPa 0,0 l/m 0 min 0 min 0 W/m 0,0 km/h (0 Bft) 97,87 %
13.09.2019 20:46 18,1 C 16,1 C 15,6 C 74 % 1032,1 hPa 0,0 l/m 0 min 0 min 0 W/m 0,0 km/h (0 Bft) 96,23 %
13.09.2019 20:48 18,0 C 16,1 C 15,6 C 74 % 1032,0 hPa 0,0 l/m 0 min 0 min 0 W/m 0,0 km/h (0 Bft) 95,74 %
13.09.2019 20:50 18,0 C 16,1 C 15,6 C 74 % 1032,0 hPa 0,0 l/m 0 min 0 min 0 W/m 0,0 km/h (0 Bft) 98,00 %
13.09.2019 20:52 17,9 C 16,1 C 15,6 C 74 % 1032,0 hPa 0,0 l/m 0 min 0 min 0 W/m 0,0 km/h (0 Bft) 97,96 %
13.09.2019 20:54 17,9 C 16,1 C 15,6 C 74 % 1031,9 hPa 0,0 l/m 0 min 0 min 0 W/m 0,0 km/h (0 Bft) 97,87 %
13.09.2019 20:56 17,9 C 16,1 C 15,0 C 74 % 1031,9 hPa 0,0 l/m 0 min 0 min 0 W/m 0,0 km/h (0 Bft) 94,29 %
13.09.2019 20:58 17,8 C 16,1 C 15,6 C 73 % 1031,9 hPa 0,0 l/m 0 min 0 min 0 W/m 0,0 km/h (0 Bft) 96,23 %
13.09.2019 21:00 17,8 C 16,1 C 15,0 C 73 % 1031,9 hPa 0,0 l/m 0 min 0 min 0 W/m 0,0 km/h (0 Bft) 97,87 %
13.09.2019 21:02 17,7 C 16,1 C 15,0 C 73 % 1031,8 hPa 0,0 l/m 0 min 0 min 0 W/m 0,0 km/h (0 Bft) 96,00 %
13.09.2019 21:04 17,7 C 15,6 C 15,0 C 73 % 1031,8 hPa 0,0 l/m 0 min 0 min 0 W/m 0,0 km/h (0 Bft) 97,96 %
13.09.2019 21:06 17,7 C 15,6 C 15,0 C 73 % 1031,8 hPa 0,0 l/m 0 min 0 min 0 W/m 0,0 km/h (0 Bft) 97,87 %
13.09.2019 21:08 17,7 C 15,6 C 15,0 C 73 % 1031,7 hPa 0,0 l/m 0 min 0 min 0 W/m 0,0 km/h (0 Bft) 97,83 %
13.09.2019 21:10 17,6 C 15,6 C 15,0 C 73 % 1031,6 hPa 0,0 l/m 0 min 0 min 0 W/m 0,0 km/h (0 Bft) 95,74 %
13.09.2019 21:12 17,6 C 15,6 C 14,4 C 73 % 1031,6 hPa 0,0 l/m 0 min 0 min 0 W/m 0,0 km/h (0 Bft) 97,87 %
13.09.2019 21:14 17,5 C 15,6 C 14,4 C 73 % 1031,5 hPa 0,0 l/m 0 min 0 min 0 W/m 0,0 km/h (0 Bft) 97,14 %
13.09.2019 21:16 17,5 C 15,0 C 14,4 C 73 % 1031,6 hPa 0,0 l/m 0 min 0 min 0 W/m 0,0 km/h (0 Bft) 98,15 %
13.09.2019 21:18 17,4 C 15,0 C 14,4 C 73 % 1031,5 hPa 0,0 l/m 0 min 0 min 0 W/m 0,0 km/h (0 Bft) 97,96 %
13.09.2019 21:20 17,4 C 15,0 C 14,4 C 74 % 1031,4 hPa 0,0 l/m 0 min 0 min 0 W/m 0,0 km/h (0 Bft) 97,96 %
13.09.2019 21:22 17,3 C 15,0 C 14,4 C 74 % 1033,7 hPa 0,0 l/m 0 min 0 min 0 W/m 0,0 km/h (0 Bft) 97,14 %
13.09.2019 21:24 17,3 C 15,0 C 14,4 C 74 % 1033,8 hPa 0,0 l/m 0 min 0 min 0 W/m 0,0 km/h (0 Bft) 98,28 %
13.09.2019 21:26 17,3 C 15,0 C 14,4 C 74 % 1033,7 hPa 0,0 l/m 0 min 0 min 0 W/m 0,0 km/h (0 Bft) 95,74 %
13.09.2019 21:28 17,2 C 15,0 C 14,4 C 73 % 1033,7 hPa 0,0 l/m 0 min 0 min 0 W/m 0,0 km/h (0 Bft) 93,62 %
13.09.2019 21:30 17,2 C 15,0 C 13,9 C 73 % 1033,8 hPa 0,0 l/m 0 min 0 min 0 W/m 0,0 km/h (0 Bft) 97,87 %
13.09.2019 21:32 17,1 C 15,0 C 13,9 C 73 % 1033,7 hPa 0,0 l/m 0 min 0 min 0 W/m 0,0 km/h (0 Bft) 97,83 %
13.09.2019 21:34 17,1 C 14,4 C 13,9 C 73 % 1033,7 hPa 0,0 l/m 0 min 0 min 0 W/m 0,0 km/h (0 Bft) 97,87 %
13.09.2019 21:36 17,0 C 14,4 C 13,9 C 73 % 1033,7 hPa 0,0 l/m 0 min 0 min 0 W/m 0,0 km/h (0 Bft) 97,87 %
13.09.2019 21:38 17,0 C 14,4 C 13,9 C 73 % 1033,7 hPa 0,0 l/m 0 min 0 min 0 W/m 0,0 km/h (0 Bft) 95,74 %
13.09.2019 21:40 16,9 C 14,4 C 13,9 C 74 % 1033,6 hPa 0,0 l/m 0 min 0 min 0 W/m 0,0 km/h (0 Bft) 97,87 %
13.09.2019 21:42 16,9 C 14,4 C 13,9 C 74 % 1033,5 hPa 0,0 l/m 0 min 0 min 0 W/m 0,0 km/h (0 Bft) 97,87 %
13.09.2019 21:44 16,8 C 14,4 C 13,9 C 74 % 1033,5 hPa 0,0 l/m 0 min 0 min 0 W/m 0,0 km/h (0 Bft) 95,65 %
13.09.2019 21:46 16,8 C 14,4 C 13,9 C 74 % 1033,5 hPa 0,0 l/m 0 min 0 min 0 W/m 0,0 km/h (0 Bft) 100,00 %
13.09.2019 21:48 16,7 C 14,4 C 13,9 C 74 % 1033,6 hPa 0,0 l/m 0 min 0 min 0 W/m 0,0 km/h (0 Bft) 100,00 %
13.09.2019 21:50 16,7 C 14,4 C 13,3 C 75 % 1033,5 hPa 0,0 l/m 0 min 0 min 0 W/m 0,0 km/h (0 Bft) 100,00 %
13.09.2019 21:52 16,6 C 14,4 C 13,9 C 75 % 1033,5 hPa 0,0 l/m 0 min 0 min 0 W/m 3,2 km/h (1 Bft) 100,00 %
13.09.2019 21:54 16,6 C 14,4 C 13,9 C 75 % 1033,4 hPa 0,0 l/m 0 min 0 min 0 W/m 0,0 km/h (0 Bft) 100,00 %
13.09.2019 21:56 16,5 C 14,4 C 13,9 C 75 % 1033,5 hPa 0,0 l/m 0 min 0 min 0 W/m 9,7 km/h (2 Bft) 100,00 %
13.09.2019 21:58 16,4 C 14,4 C 13,9 C 75 % 1033,5 hPa 0,0 l/m 0 min 0 min 0 W/m 3,2 km/h (1 Bft) 100,00 %
13.09.2019 22:00 16,4 C 14,4 C 13,9 C 76 % 1033,5 hPa 0,0 l/m 0 min 0 min 0 W/m 0,0 km/h (0 Bft) 97,87 %
13.09.2019 22:02 16,3 C 14,4 C 13,9 C 76 % 1033,4 hPa 0,0 l/m 0 min 0 min 0 W/m 3,2 km/h (1 Bft) 100,00 %
13.09.2019 22:04 16,3 C 14,4 C 13,9 C 76 % 1033,5 hPa 0,0 l/m 0 min 0 min 0 W/m 0,0 km/h (0 Bft) 97,87 %
13.09.2019 22:06 16,2 C 14,4 C 13,9 C 76 % 1033,4 hPa 0,0 l/m 0 min 0 min 0 W/m 3,2 km/h (1 Bft) 97,87 %
13.09.2019 22:08 16,2 C 14,4 C 14,4 C 77 % 1033,4 hPa 0,0 l/m 0 min 0 min 0 W/m 3,2 km/h (1 Bft) 95,65 %
13.09.2019 22:10 16,1 C 14,4 C 14,4 C 77 % 1033,4 hPa 0,0 l/m 0 min 0 min 0 W/m 3,2 km/h (1 Bft) 97,87 %
13.09.2019 22:12 16,1 C 14,4 C 14,4 C 77 % 1033,4 hPa 0,0 l/m 0 min 0 min 0 W/m 3,2 km/h (1 Bft) 97,87 %
13.09.2019 22:14 16,1 C 14,4 C 14,4 C 77 % 1033,4 hPa 0,0 l/m 0 min 0 min 0 W/m 3,2 km/h (1 Bft) 97,87 %
13.09.2019 22:16 16,0 C 14,4 C 14,4 C 77 % 1033,4 hPa 0,0 l/m 0 min 0 min 0 W/m 0,0 km/h (0 Bft) 97,87 %
13.09.2019 22:18 16,0 C 14,4 C 14,4 C 78 % 1033,3 hPa 0,0 l/m 0 min 0 min 0 W/m 0,0 km/h (0 Bft) 97,87 %
13.09.2019 22:20 15,9 C 14,4 C 14,4 C 78 % 1033,3 hPa 0,0 l/m 0 min 0 min 0 W/m 0,0 km/h (0 Bft) 97,83 %
13.09.2019 22:22 15,9 C 14,4 C 13,9 C 78 % 1033,3 hPa 0,0 l/m 0 min 0 min 0 W/m 0,0 km/h (0 Bft) 95,74 %
13.09.2019 22:24 15,9 C 14,4 C 13,9 C 78 % 1033,2 hPa 0,0 l/m 0 min 0 min 0 W/m 3,2 km/h (1 Bft) 97,87 %
13.09.2019 22:26 15,9 C 14,4 C 13,9 C 78 % 1033,2 hPa 0,0 l/m 0 min 0 min 0 W/m 0,0 km/h (0 Bft) 97,87 %
13.09.2019 22:28 15,9 C 14,4 C 13,9 C 78 % 1033,2 hPa 0,0 l/m 0 min 0 min 0 W/m 0,0 km/h (0 Bft) 97,87 %
13.09.2019 22:30 15,8 C 14,4 C 13,9 C 78 % 1033,2 hPa 0,0 l/m 0 min 0 min 0 W/m 0,0 km/h (0 Bft) 97,87 %
13.09.2019 22:32 15,8 C 14,4 C 13,9 C 78 % 1033,1 hPa 0,0 l/m 0 min 0 min 0 W/m 0,0 km/h (0 Bft) 95,74 %
13.09.2019 22:34 15,8 C 13,9 C 13,9 C 78 % 1033,1 hPa 0,0 l/m 0 min 0 min 0 W/m 0,0 km/h (0 Bft) 97,87 %
13.09.2019 22:36 15,8 C 13,9 C 13,9 C 78 % 1033,0 hPa 0,0 l/m 0 min 0 min 0 W/m 3,2 km/h (1 Bft) 97,87 %
13.09.2019 22:38 15,7 C 13,9 C 13,9 C 78 % 1033,0 hPa 0,0 l/m 0 min 0 min 0 W/m 0,0 km/h (0 Bft) 97,14 %
13.09.2019 22:40 15,7 C 14,4 C 13,9 C 78 % 1033,1 hPa 0,0 l/m 0 min 0 min 0 W/m 3,2 km/h (1 Bft) 95,74 %
13.09.2019 22:42 15,7 C 13,9 C 13,9 C 78 % 1033,1 hPa 0,0 l/m 0 min 0 min 0 W/m 3,2 km/h (1 Bft) 95,74 %
13.09.2019 22:44 15,6 C 14,4 C 13,9 C 78 % 1033,1 hPa 0,0 l/m 0 min 0 min 0 W/m 0,0 km/h (0 Bft) 95,65 %
13.09.2019 22:46 15,6 C 14,4 C 13,9 C 78 % 1033,1 hPa 0,0 l/m 0 min 0 min 0 W/m 0,0 km/h (0 Bft) 95,74 %
13.09.2019 22:48 15,6 C 13,9 C 13,9 C 78 % 1033,1 hPa 0,0 l/m 0 min 0 min 0 W/m 0,0 km/h (0 Bft) 95,74 %
13.09.2019 22:50 15,5 C 13,9 C 13,9 C 78 % 1033,1 hPa 0,0 l/m 0 min 0 min 0 W/m 0,0 km/h (0 Bft) 93,62 %
13.09.2019 22:52 15,5 C 13,9 C 13,9 C 78 % 1033,1 hPa 0,0 l/m 0 min 0 min 0 W/m 3,2 km/h (1 Bft) 95,74 %
13.09.2019 22:54 15,4 C 13,9 C 13,9 C 78 % 1033,1 hPa 0,0 l/m 0 min 0 min 0 W/m 3,2 km/h (1 Bft) 95,74 %
13.09.2019 22:56 15,4 C 13,9 C 13,9 C 78 % 1033,0 hPa 0,0 l/m 0 min 0 min 0 W/m 0,0 km/h (0 Bft) 93,48 %
13.09.2019 22:58 15,4 C 13,9 C 13,9 C 78 % 1033,0 hPa 0,0 l/m 0 min 0 min 0 W/m 0,0 km/h (0 Bft) 93,62 %
13.09.2019 23:00 15,3 C 13,9 C 13,3 C 78 % 1033,1 hPa 0,0 l/m 0 min 0 min 0 W/m 0,0 km/h (0 Bft) 95,74 %
13.09.2019 23:02 15,3 C 13,9 C 13,3 C 78 % 1033,1 hPa 0,0 l/m 0 min 0 min 0 W/m 3,2 km/h (1 Bft) 95,74 %
13.09.2019 23:04 15,3 C 13,9 C 13,3 C 78 % 1033,0 hPa 0,0 l/m 0 min 0 min 0 W/m 0,0 km/h (0 Bft) 95,74 %
13.09.2019 23:06 15,2 C 13,9 C 13,3 C 78 % 1032,9 hPa 0,0 l/m 0 min 0 min 0 W/m 0,0 km/h (0 Bft) 93,62 %
13.09.2019 23:08 15,2 C 13,9 C 13,3 C 78 % 1032,9 hPa 0,0 l/m 0 min 0 min 0 W/m 3,2 km/h (1 Bft) 95,65 %
13.09.2019 23:10 15,2 C 13,9 C 13,3 C 78 % 1032,9 hPa 0,0 l/m 0 min 0 min 0 W/m 3,2 km/h (1 Bft) 95,74 %
13.09.2019 23:12 15,1 C 13,9 C 13,3 C 78 % 1032,9 hPa 0,0 l/m 0 min 0 min 0 W/m 3,2 km/h (1 Bft) 97,87 %
13.09.2019 23:14 15,1 C 13,9 C 13,3 C 78 % 1032,9 hPa 0,0 l/m 0 min 0 min 0 W/m 0,0 km/h (0 Bft) 97,87 %
13.09.2019 23:16 15,1 C 13,9 C 13,3 C 78 % 1032,8 hPa 0,0 l/m 0 min 0 min 0 W/m 0,0 km/h (0 Bft) 97,87 %
13.09.2019 23:18 15,1 C 13,9 C 13,3 C 78 % 1032,8 hPa 0,0 l/m 0 min 0 min 0 W/m 0,0 km/h (0 Bft) 95,74 %
13.09.2019 23:20 15,0 C 13,3 C 13,3 C 78 % 1032,9 hPa 0,0 l/m 0 min 0 min 0 W/m 0,0 km/h (0 Bft) 100,00 %
13.09.2019 23:22 14,9 C 13,3 C 13,3 C 78 % 1032,8 hPa 0,0 l/m 0 min 0 min 0 W/m 0,0 km/h (0 Bft) 100,00 %
13.09.2019 23:24 14,9 C 13,3 C 13,3 C 78 % 1032,8 hPa 0,0 l/m 0 min 0 min 0 W/m 0,0 km/h (0 Bft) 100,00 %
13.09.2019 23:26 14,9 C 13,3 C 12,8 C 78 % 1032,8 hPa 0,0 l/m 0 min 0 min 0 W/m 3,2 km/h (1 Bft) 100,00 %
13.09.2019 23:28 14,9 C 13,3 C 12,8 C 78 % 1032,8 hPa 0,0 l/m 0 min 0 min 0 W/m 12,9 km/h (3 Bft) 100,00 %
13.09.2019 23:30 14,8 C 13,3 C 12,8 C 78 % 1032,8 hPa 0,0 l/m 0 min 0 min 0 W/m 0,0 km/h (0 Bft) 100,00 %
13.09.2019 23:32 14,8 C 13,3 C 13,3 C 78 % 1032,7 hPa 0,0 l/m 0 min 0 min 0 W/m 3,2 km/h (1 Bft) 100,00 %
13.09.2019 23:34 14,8 C 13,3 C 13,3 C 78 % 1032,8 hPa 0,0 l/m 0 min 0 min 0 W/m 0,0 km/h (0 Bft) 100,00 %
13.09.2019 23:36 14,8 C 13,3 C 13,3 C 78 % 1032,8 hPa 0,0 l/m 0 min 0 min 0 W/m 3,2 km/h (1 Bft) 100,00 %
13.09.2019 23:38 14,7 C 13,3 C 13,3 C 78 % 1032,7 hPa 0,0 l/m 0 min 0 min 0 W/m 3,2 km/h (1 Bft) 100,00 %
13.09.2019 23:40 14,7 C 13,3 C 13,3 C 78 % 1032,7 hPa 0,0 l/m 0 min 0 min 0 W/m 3,2 km/h (1 Bft) 100,00 %
13.09.2019 23:42 14,7 C 13,3 C 13,3 C 78 % 1032,7 hPa 0,0 l/m 0 min 0 min 0 W/m 0,0 km/h (0 Bft) 100,00 %
13.09.2019 23:44 14,7 C 13,3 C 12,8 C 77 % 1032,7 hPa 0,0 l/m 0 min 0 min 0 W/m 0,0 km/h (0 Bft) 100,00 %
13.09.2019 23:46 14,6 C 13,3 C 12,8 C 77 % 1032,7 hPa 0,0 l/m 0 min 0 min 0 W/m 0,0 km/h (0 Bft) 100,00 %
13.09.2019 23:48 14,6 C 13,3 C 12,8 C 77 % 1032,6 hPa 0,0 l/m 0 min 0 min 0 W/m 0,0 km/h (0 Bft) 100,00 %
13.09.2019 23:50 14,6 C 13,3 C 12,8 C 77 % 1032,6 hPa 0,0 l/m 0 min 0 min 0 W/m 0,0 km/h (0 Bft) 97,87 %
13.09.2019 23:52 14,6 C 12,8 C 12,8 C 78 % 1032,6 hPa 0,0 l/m 0 min 0 min 0 W/m 0,0 km/h (0 Bft) 100,00 %
13.09.2019 23:54 14,6 C 12,8 C 12,8 C 78 % 1032,6 hPa 0,0 l/m 0 min 0 min 0 W/m 0,0 km/h (0 Bft) 100,00 %
13.09.2019 23:56 14,5 C 12,8 C 12,8 C 78 % 1032,5 hPa 0,0 l/m 0 min 0 min 0 W/m 0,0 km/h (0 Bft) 97,87 %
13.09.2019 23:58 14,5 C 12,8 C 12,8 C 78 % 1032,5 hPa 0,0 l/m 0 min 0 min 0 W/m 0,0 km/h (0 Bft) 97,87 %
_ Min-Zeit 23:56 23:52 23:26 18:28 01:02 - - - - 00:48 13:36
Minimum _ 14,5 C 12,8 C 12,8 C 66 % 1027,9 hPa - - - - 0,0 km/h (0 Bft) 91,43 %
_ Max-Zeit 15:52 15:34 16:54 10:10 17:02 09:52 10:48 09:00 15:06 04:16 00:00
Maximum _ 22,4 C 28,9 C 23,3 C 97 % 1038,7 hPa 0,2 l/m 2 min 2 min 808 W/m 22,5 km/h
SW (4 Bft)
100,00 %
Durchschnitt _ 18,6 C 18,1 C 17,3 C 83 % 1033,0 hPa #0,4 l/m #1:48 h #34 min. 163 W/m 4,2 km/h (1 Bft) 97,53 %
© 2019 W. Hausmann